<?xml version="1.0" encoding="UTF-8" standalone="no" ?>
<gpx xmlns="http://www.topografix.com/GPX/1/1" xmlns:xsi="http://www.w3.org/2001/XMLSchema-instance" xsi:schemaLocation="http://www.topografix.com/GPX/1/1 http://www.topografix.com/GPX/1/1/gpx.xsd" version="1.1" creator="VisuGPX - https://www.visugpx.com">
  <metadata>
    <name>fleur du Roy directe</name>
    <desc><![CDATA[la fleur du Roy en directe]]></desc>
  </metadata>
  <trk>
    <name><![CDATA[Track 002]]></name>
    <desc><![CDATA[21 mars 2013  8:55 am]]></desc>
    <trkseg>
      <trkpt lat="45.02374" lon="5.51737">
        <ele>1128.403</ele>
        <time>2013-03-21T07:56:55.880Z</time>
      </trkpt>
      <trkpt lat="45.02374" lon="5.51737">
        <ele>1127.882</ele>
        <time>2013-03-21T07:56:55.980Z</time>
      </trkpt>
      <trkpt lat="45.02355" lon="5.51735">
        <ele>1127.688</ele>
        <time>2013-03-21T07:57:08.430Z</time>
      </trkpt>
      <trkpt lat="45.02346" lon="5.51732">
        <ele>1130.831</ele>
        <time>2013-03-21T07:57:12.428Z</time>
      </trkpt>
      <trkpt lat="45.02336" lon="5.51726">
        <ele>1139.206</ele>
        <time>2013-03-21T07:57:17.096Z</time>
      </trkpt>
      <trkpt lat="45.02328" lon="5.51716">
        <ele>1147.866</ele>
        <time>2013-03-21T07:57:21.902Z</time>
      </trkpt>
      <trkpt lat="45.0232" lon="5.51708">
        <ele>1151.074</ele>
        <time>2013-03-21T07:57:26.428Z</time>
      </trkpt>
      <trkpt lat="45.02311" lon="5.51702">
        <ele>1148.957</ele>
        <time>2013-03-21T07:57:31.318Z</time>
      </trkpt>
      <trkpt lat="45.02302" lon="5.51697">
        <ele>1144.833</ele>
        <time>2013-03-21T07:57:35.740Z</time>
      </trkpt>
      <trkpt lat="45.02294" lon="5.51692">
        <ele>1142.395</ele>
        <time>2013-03-21T07:57:40.135Z</time>
      </trkpt>
      <trkpt lat="45.02285" lon="5.51689">
        <ele>1143.165</ele>
        <time>2013-03-21T07:57:44.172Z</time>
      </trkpt>
      <trkpt lat="45.02276" lon="5.51686">
        <ele>1145.902</ele>
        <time>2013-03-21T07:57:48.016Z</time>
      </trkpt>
      <trkpt lat="45.02265" lon="5.51683">
        <ele>1148.633</ele>
        <time>2013-03-21T07:57:52.238Z</time>
      </trkpt>
      <trkpt lat="45.02256" lon="5.51679">
        <ele>1151.11</ele>
        <time>2013-03-21T07:57:55.852Z</time>
      </trkpt>
      <trkpt lat="45.02247" lon="5.51676">
        <ele>1153.596</ele>
        <time>2013-03-21T07:57:59.262Z</time>
      </trkpt>
      <trkpt lat="45.02237" lon="5.51669">
        <ele>1155.374</ele>
        <time>2013-03-21T07:58:03.062Z</time>
      </trkpt>
      <trkpt lat="45.02231" lon="5.5166">
        <ele>1156.038</ele>
        <time>2013-03-21T07:58:06.593Z</time>
      </trkpt>
      <trkpt lat="45.02225" lon="5.5165">
        <ele>1155.331</ele>
        <time>2013-03-21T07:58:10.497Z</time>
      </trkpt>
      <trkpt lat="45.02225" lon="5.51636">
        <ele>1153.287</ele>
        <time>2013-03-21T07:58:15.101Z</time>
      </trkpt>
      <trkpt lat="45.02231" lon="5.51624">
        <ele>1151.573</ele>
        <time>2013-03-21T07:58:20.344Z</time>
      </trkpt>
      <trkpt lat="45.02239" lon="5.51616">
        <ele>1151.503</ele>
        <time>2013-03-21T07:58:25.467Z</time>
      </trkpt>
      <trkpt lat="45.02246" lon="5.51607">
        <ele>1152.7</ele>
        <time>2013-03-21T07:58:30.623Z</time>
      </trkpt>
      <trkpt lat="45.02253" lon="5.51597">
        <ele>1154.51</ele>
        <time>2013-03-21T07:58:35.959Z</time>
      </trkpt>
      <trkpt lat="45.0226" lon="5.51587">
        <ele>1156.289</ele>
        <time>2013-03-21T07:58:42.261Z</time>
      </trkpt>
      <trkpt lat="45.02266" lon="5.51577">
        <ele>1157.57</ele>
        <time>2013-03-21T07:58:48.390Z</time>
      </trkpt>
      <trkpt lat="45.02272" lon="5.51567">
        <ele>1158.379</ele>
        <time>2013-03-21T07:58:54.530Z</time>
      </trkpt>
      <trkpt lat="45.02283" lon="5.51564">
        <ele>1158.4</ele>
        <time>2013-03-21T07:59:01.066Z</time>
      </trkpt>
      <trkpt lat="45.02293" lon="5.51564">
        <ele>1157.49</ele>
        <time>2013-03-21T07:59:07.306Z</time>
      </trkpt>
      <trkpt lat="45.02303" lon="5.51559">
        <ele>1156.418</ele>
        <time>2013-03-21T07:59:13.483Z</time>
      </trkpt>
      <trkpt lat="45.02308" lon="5.51547">
        <ele>1156.089</ele>
        <time>2013-03-21T07:59:18.392Z</time>
      </trkpt>
      <trkpt lat="45.02311" lon="5.51534">
        <ele>1156.912</ele>
        <time>2013-03-21T07:59:22.598Z</time>
      </trkpt>
      <trkpt lat="45.02317" lon="5.51522">
        <ele>1158.516</ele>
        <time>2013-03-21T07:59:27.435Z</time>
      </trkpt>
      <trkpt lat="45.02324" lon="5.51513">
        <ele>1159.668</ele>
        <time>2013-03-21T07:59:31.666Z</time>
      </trkpt>
      <trkpt lat="45.02334" lon="5.51507">
        <ele>1159.719</ele>
        <time>2013-03-21T07:59:36.789Z</time>
      </trkpt>
      <trkpt lat="45.02343" lon="5.51502">
        <ele>1159.507</ele>
        <time>2013-03-21T07:59:40.868Z</time>
      </trkpt>
      <trkpt lat="45.02356" lon="5.51497">
        <ele>1159.866</ele>
        <time>2013-03-21T07:59:45.662Z</time>
      </trkpt>
      <trkpt lat="45.02368" lon="5.51494">
        <ele>1160.659</ele>
        <time>2013-03-21T07:59:48.950Z</time>
      </trkpt>
      <trkpt lat="45.02377" lon="5.5149">
        <ele>1161.641</ele>
        <time>2013-03-21T07:59:51.263Z</time>
      </trkpt>
      <trkpt lat="45.02387" lon="5.51487">
        <ele>1162.78</ele>
        <time>2013-03-21T07:59:53.778Z</time>
      </trkpt>
      <trkpt lat="45.02397" lon="5.5149">
        <ele>1163.867</ele>
        <time>2013-03-21T07:59:56.218Z</time>
      </trkpt>
      <trkpt lat="45.02407" lon="5.51496">
        <ele>1164.67</ele>
        <time>2013-03-21T07:59:59.096Z</time>
      </trkpt>
      <trkpt lat="45.02417" lon="5.51499">
        <ele>1164.618</ele>
        <time>2013-03-21T08:00:02.019Z</time>
      </trkpt>
      <trkpt lat="45.02426" lon="5.51503">
        <ele>1163.498</ele>
        <time>2013-03-21T08:00:05.114Z</time>
      </trkpt>
      <trkpt lat="45.02436" lon="5.51514">
        <ele>1162.529</ele>
        <time>2013-03-21T08:00:09.334Z</time>
      </trkpt>
      <trkpt lat="45.02441" lon="5.51524">
        <ele>1163.093</ele>
        <time>2013-03-21T08:00:12.525Z</time>
      </trkpt>
      <trkpt lat="45.02448" lon="5.51534">
        <ele>1165.503</ele>
        <time>2013-03-21T08:00:15.749Z</time>
      </trkpt>
      <trkpt lat="45.02454" lon="5.51545">
        <ele>1168.803</ele>
        <time>2013-03-21T08:00:18.891Z</time>
      </trkpt>
      <trkpt lat="45.02461" lon="5.51555">
        <ele>1171.273</ele>
        <time>2013-03-21T08:00:22.020Z</time>
      </trkpt>
      <trkpt lat="45.02472" lon="5.5156">
        <ele>1171.988</ele>
        <time>2013-03-21T08:00:25.806Z</time>
      </trkpt>
      <trkpt lat="45.02482" lon="5.51558">
        <ele>1170.866</ele>
        <time>2013-03-21T08:00:29.063Z</time>
      </trkpt>
      <trkpt lat="45.0249" lon="5.51554">
        <ele>1168.515</ele>
        <time>2013-03-21T08:00:31.917Z</time>
      </trkpt>
      <trkpt lat="45.025" lon="5.5155">
        <ele>1167.177</ele>
        <time>2013-03-21T08:00:35.079Z</time>
      </trkpt>
      <trkpt lat="45.0251" lon="5.51547">
        <ele>1168.868</ele>
        <time>2013-03-21T08:00:38.109Z</time>
      </trkpt>
      <trkpt lat="45.02521" lon="5.51543">
        <ele>1172.538</ele>
        <time>2013-03-21T08:00:41.407Z</time>
      </trkpt>
      <trkpt lat="45.02531" lon="5.51539">
        <ele>1175.022</ele>
        <time>2013-03-21T08:00:44.753Z</time>
      </trkpt>
      <trkpt lat="45.0254" lon="5.51536">
        <ele>1174.923</ele>
        <time>2013-03-21T08:00:48.415Z</time>
      </trkpt>
      <trkpt lat="45.02549" lon="5.51533">
        <ele>1173.615</ele>
        <time>2013-03-21T08:00:52.050Z</time>
      </trkpt>
      <trkpt lat="45.0256" lon="5.5153">
        <ele>1172.757</ele>
        <time>2013-03-21T08:00:56.690Z</time>
      </trkpt>
      <trkpt lat="45.0257" lon="5.51528">
        <ele>1172.63</ele>
        <time>2013-03-21T08:01:01.385Z</time>
      </trkpt>
      <trkpt lat="45.0258" lon="5.51521">
        <ele>1173.025</ele>
        <time>2013-03-21T08:01:06.647Z</time>
      </trkpt>
      <trkpt lat="45.02589" lon="5.5152">
        <ele>1174.237</ele>
        <time>2013-03-21T08:01:11.583Z</time>
      </trkpt>
      <trkpt lat="45.02599" lon="5.51516">
        <ele>1176.153</ele>
        <time>2013-03-21T08:01:16.942Z</time>
      </trkpt>
      <trkpt lat="45.02608" lon="5.51511">
        <ele>1177.691</ele>
        <time>2013-03-21T08:01:22.497Z</time>
      </trkpt>
      <trkpt lat="45.02617" lon="5.51508">
        <ele>1178.362</ele>
        <time>2013-03-21T08:01:27.333Z</time>
      </trkpt>
      <trkpt lat="45.02626" lon="5.51506">
        <ele>1178.356</ele>
        <time>2013-03-21T08:01:32.117Z</time>
      </trkpt>
      <trkpt lat="45.02636" lon="5.51509">
        <ele>1178.22</ele>
        <time>2013-03-21T08:01:37.404Z</time>
      </trkpt>
      <trkpt lat="45.02647" lon="5.51504">
        <ele>1178.181</ele>
        <time>2013-03-21T08:01:43.441Z</time>
      </trkpt>
      <trkpt lat="45.02657" lon="5.51501">
        <ele>1177.961</ele>
        <time>2013-03-21T08:01:48.732Z</time>
      </trkpt>
      <trkpt lat="45.02667" lon="5.51494">
        <ele>1177.686</ele>
        <time>2013-03-21T08:01:54.566Z</time>
      </trkpt>
      <trkpt lat="45.02676" lon="5.51486">
        <ele>1177.783</ele>
        <time>2013-03-21T08:02:00.383Z</time>
      </trkpt>
      <trkpt lat="45.0268" lon="5.51473">
        <ele>1178.134</ele>
        <time>2013-03-21T08:02:05.872Z</time>
      </trkpt>
      <trkpt lat="45.02686" lon="5.5146">
        <ele>1179.289</ele>
        <time>2013-03-21T08:02:12.085Z</time>
      </trkpt>
      <trkpt lat="45.02691" lon="5.51447">
        <ele>1181.659</ele>
        <time>2013-03-21T08:02:18.043Z</time>
      </trkpt>
      <trkpt lat="45.02698" lon="5.51434">
        <ele>1184.007</ele>
        <time>2013-03-21T08:02:24.073Z</time>
      </trkpt>
      <trkpt lat="45.02703" lon="5.51423">
        <ele>1185.005</ele>
        <time>2013-03-21T08:02:29.244Z</time>
      </trkpt>
      <trkpt lat="45.02709" lon="5.51412">
        <ele>1184.956</ele>
        <time>2013-03-21T08:02:34.300Z</time>
      </trkpt>
      <trkpt lat="45.02716" lon="5.51403">
        <ele>1184.623</ele>
        <time>2013-03-21T08:02:38.823Z</time>
      </trkpt>
      <trkpt lat="45.02723" lon="5.51393">
        <ele>1184.946</ele>
        <time>2013-03-21T08:02:43.776Z</time>
      </trkpt>
      <trkpt lat="45.0273" lon="5.51382">
        <ele>1187.032</ele>
        <time>2013-03-21T08:02:49.128Z</time>
      </trkpt>
      <trkpt lat="45.02734" lon="5.51368">
        <ele>1190.393</ele>
        <time>2013-03-21T08:02:54.732Z</time>
      </trkpt>
      <trkpt lat="45.0274" lon="5.51359">
        <ele>1193.165</ele>
        <time>2013-03-21T08:02:59.815Z</time>
      </trkpt>
      <trkpt lat="45.02747" lon="5.5135">
        <ele>1195.105</ele>
        <time>2013-03-21T08:03:04.713Z</time>
      </trkpt>
      <trkpt lat="45.02755" lon="5.5134">
        <ele>1197.018</ele>
        <time>2013-03-21T08:03:10.286Z</time>
      </trkpt>
      <trkpt lat="45.02763" lon="5.51332">
        <ele>1198.246</ele>
        <time>2013-03-21T08:03:15.198Z</time>
      </trkpt>
      <trkpt lat="45.02769" lon="5.51322">
        <ele>1197.99</ele>
        <time>2013-03-21T08:03:20.713Z</time>
      </trkpt>
      <trkpt lat="45.02777" lon="5.51315">
        <ele>1196.509</ele>
        <time>2013-03-21T08:03:26.391Z</time>
      </trkpt>
      <trkpt lat="45.02787" lon="5.51302">
        <ele>1193.535</ele>
        <time>2013-03-21T08:03:34.756Z</time>
      </trkpt>
      <trkpt lat="45.02796" lon="5.51289">
        <ele>1189.423</ele>
        <time>2013-03-21T08:03:40.731Z</time>
      </trkpt>
      <trkpt lat="45.02804" lon="5.51273">
        <ele>1186.148</ele>
        <time>2013-03-21T08:03:45.366Z</time>
      </trkpt>
      <trkpt lat="45.02805" lon="5.51257">
        <ele>1184.918</ele>
        <time>2013-03-21T08:03:48.559Z</time>
      </trkpt>
      <trkpt lat="45.02808" lon="5.51244">
        <ele>1185.111</ele>
        <time>2013-03-21T08:03:51.181Z</time>
      </trkpt>
      <trkpt lat="45.02812" lon="5.5123">
        <ele>1186.128</ele>
        <time>2013-03-21T08:03:54.013Z</time>
      </trkpt>
      <trkpt lat="45.02815" lon="5.51216">
        <ele>1189.032</ele>
        <time>2013-03-21T08:03:56.984Z</time>
      </trkpt>
      <trkpt lat="45.02823" lon="5.51205">
        <ele>1194.224</ele>
        <time>2013-03-21T08:04:00.556Z</time>
      </trkpt>
      <trkpt lat="45.0283" lon="5.51197">
        <ele>1198.934</ele>
        <time>2013-03-21T08:04:03.684Z</time>
      </trkpt>
      <trkpt lat="45.02838" lon="5.51188">
        <ele>1200.413</ele>
        <time>2013-03-21T08:04:07.384Z</time>
      </trkpt>
      <trkpt lat="45.02846" lon="5.5118">
        <ele>1199.03</ele>
        <time>2013-03-21T08:04:10.837Z</time>
      </trkpt>
      <trkpt lat="45.02854" lon="5.51174">
        <ele>1196.556</ele>
        <time>2013-03-21T08:04:14.532Z</time>
      </trkpt>
      <trkpt lat="45.02866" lon="5.51169">
        <ele>1194.432</ele>
        <time>2013-03-21T08:04:19.133Z</time>
      </trkpt>
      <trkpt lat="45.02876" lon="5.51162">
        <ele>1193.45</ele>
        <time>2013-03-21T08:04:23.640Z</time>
      </trkpt>
      <trkpt lat="45.02885" lon="5.51158">
        <ele>1193.63</ele>
        <time>2013-03-21T08:04:27.636Z</time>
      </trkpt>
      <trkpt lat="45.02895" lon="5.51153">
        <ele>1194.214</ele>
        <time>2013-03-21T08:04:32.121Z</time>
      </trkpt>
      <trkpt lat="45.02904" lon="5.51147">
        <ele>1195.196</ele>
        <time>2013-03-21T08:04:36.305Z</time>
      </trkpt>
      <trkpt lat="45.02912" lon="5.51142">
        <ele>1196.884</ele>
        <time>2013-03-21T08:04:40.711Z</time>
      </trkpt>
      <trkpt lat="45.02921" lon="5.51135">
        <ele>1198.552</ele>
        <time>2013-03-21T08:04:45.431Z</time>
      </trkpt>
      <trkpt lat="45.0293" lon="5.51126">
        <ele>1199.449</ele>
        <time>2013-03-21T08:04:50.532Z</time>
      </trkpt>
      <trkpt lat="45.0294" lon="5.51119">
        <ele>1199.51</ele>
        <time>2013-03-21T08:04:55.869Z</time>
      </trkpt>
      <trkpt lat="45.02949" lon="5.51112">
        <ele>1198.699</ele>
        <time>2013-03-21T08:05:01.059Z</time>
      </trkpt>
      <trkpt lat="45.02957" lon="5.51104">
        <ele>1197.672</ele>
        <time>2013-03-21T08:05:05.582Z</time>
      </trkpt>
      <trkpt lat="45.02962" lon="5.51091">
        <ele>1197.678</ele>
        <time>2013-03-21T08:05:10.674Z</time>
      </trkpt>
      <trkpt lat="45.02968" lon="5.51078">
        <ele>1199.047</ele>
        <time>2013-03-21T08:05:15.793Z</time>
      </trkpt>
      <trkpt lat="45.02973" lon="5.51067">
        <ele>1201.293</ele>
        <time>2013-03-21T08:05:20.190Z</time>
      </trkpt>
      <trkpt lat="45.02977" lon="5.51054">
        <ele>1203.743</ele>
        <time>2013-03-21T08:05:25.297Z</time>
      </trkpt>
      <trkpt lat="45.0298" lon="5.51042">
        <ele>1205.461</ele>
        <time>2013-03-21T08:05:29.981Z</time>
      </trkpt>
      <trkpt lat="45.02982" lon="5.51025">
        <ele>1205.856</ele>
        <time>2013-03-21T08:05:35.781Z</time>
      </trkpt>
      <trkpt lat="45.02984" lon="5.51012">
        <ele>1205.295</ele>
        <time>2013-03-21T08:05:39.918Z</time>
      </trkpt>
      <trkpt lat="45.02987" lon="5.50996">
        <ele>1204.561</ele>
        <time>2013-03-21T08:05:44.616Z</time>
      </trkpt>
      <trkpt lat="45.02992" lon="5.50984">
        <ele>1204.202</ele>
        <time>2013-03-21T08:05:48.421Z</time>
      </trkpt>
      <trkpt lat="45.03003" lon="5.50971">
        <ele>1204.201</ele>
        <time>2013-03-21T08:05:53.107Z</time>
      </trkpt>
      <trkpt lat="45.03015" lon="5.50952">
        <ele>1204.286</ele>
        <time>2013-03-21T08:05:58.215Z</time>
      </trkpt>
      <trkpt lat="45.03023" lon="5.50944">
        <ele>1203.913</ele>
        <time>2013-03-21T08:06:00.433Z</time>
      </trkpt>
      <trkpt lat="45.03031" lon="5.50936">
        <ele>1202.923</ele>
        <time>2013-03-21T08:06:02.546Z</time>
      </trkpt>
      <trkpt lat="45.03039" lon="5.50929">
        <ele>1202.023</ele>
        <time>2013-03-21T08:06:04.738Z</time>
      </trkpt>
      <trkpt lat="45.03049" lon="5.50921">
        <ele>1202.664</ele>
        <time>2013-03-21T08:06:07.250Z</time>
      </trkpt>
      <trkpt lat="45.03055" lon="5.5091">
        <ele>1205.127</ele>
        <time>2013-03-21T08:06:09.861Z</time>
      </trkpt>
      <trkpt lat="45.03061" lon="5.50899">
        <ele>1207.278</ele>
        <time>2013-03-21T08:06:12.570Z</time>
      </trkpt>
      <trkpt lat="45.03069" lon="5.50892">
        <ele>1207.385</ele>
        <time>2013-03-21T08:06:15.677Z</time>
      </trkpt>
      <trkpt lat="45.03079" lon="5.50886">
        <ele>1206.337</ele>
        <time>2013-03-21T08:06:19.131Z</time>
      </trkpt>
      <trkpt lat="45.03087" lon="5.50879">
        <ele>1205.602</ele>
        <time>2013-03-21T08:06:22.777Z</time>
      </trkpt>
      <trkpt lat="45.03096" lon="5.50872">
        <ele>1206.068</ele>
        <time>2013-03-21T08:06:27.043Z</time>
      </trkpt>
      <trkpt lat="45.03105" lon="5.50863">
        <ele>1207.625</ele>
        <time>2013-03-21T08:06:31.687Z</time>
      </trkpt>
      <trkpt lat="45.03113" lon="5.50855">
        <ele>1209.141</ele>
        <time>2013-03-21T08:06:36.070Z</time>
      </trkpt>
      <trkpt lat="45.03123" lon="5.5085">
        <ele>1210.148</ele>
        <time>2013-03-21T08:06:40.577Z</time>
      </trkpt>
      <trkpt lat="45.03134" lon="5.50849">
        <ele>1210.43</ele>
        <time>2013-03-21T08:06:45.275Z</time>
      </trkpt>
      <trkpt lat="45.03144" lon="5.50849">
        <ele>1209.576</ele>
        <time>2013-03-21T08:06:49.815Z</time>
      </trkpt>
      <trkpt lat="45.03153" lon="5.50845">
        <ele>1208.306</ele>
        <time>2013-03-21T08:06:53.898Z</time>
      </trkpt>
      <trkpt lat="45.03163" lon="5.50839">
        <ele>1207.662</ele>
        <time>2013-03-21T08:06:58.626Z</time>
      </trkpt>
      <trkpt lat="45.0317" lon="5.50828">
        <ele>1208.437</ele>
        <time>2013-03-21T08:07:03.429Z</time>
      </trkpt>
      <trkpt lat="45.03177" lon="5.50816">
        <ele>1210.761</ele>
        <time>2013-03-21T08:07:09.141Z</time>
      </trkpt>
      <trkpt lat="45.03182" lon="5.50805">
        <ele>1213.065</ele>
        <time>2013-03-21T08:07:14.846Z</time>
      </trkpt>
      <trkpt lat="45.03189" lon="5.50795">
        <ele>1213.915</ele>
        <time>2013-03-21T08:07:20.302Z</time>
      </trkpt>
      <trkpt lat="45.03199" lon="5.50787">
        <ele>1213.047</ele>
        <time>2013-03-21T08:07:25.959Z</time>
      </trkpt>
      <trkpt lat="45.0321" lon="5.50778">
        <ele>1211.007</ele>
        <time>2013-03-21T08:07:31.643Z</time>
      </trkpt>
      <trkpt lat="45.03217" lon="5.50765">
        <ele>1209.282</ele>
        <time>2013-03-21T08:07:35.597Z</time>
      </trkpt>
      <trkpt lat="45.03224" lon="5.50756">
        <ele>1208.825</ele>
        <time>2013-03-21T08:07:38.651Z</time>
      </trkpt>
      <trkpt lat="45.03232" lon="5.5075">
        <ele>1209.357</ele>
        <time>2013-03-21T08:07:41.962Z</time>
      </trkpt>
      <trkpt lat="45.03242" lon="5.50756">
        <ele>1210.233</ele>
        <time>2013-03-21T08:07:46.797Z</time>
      </trkpt>
      <trkpt lat="45.03254" lon="5.50758">
        <ele>1210.888</ele>
        <time>2013-03-21T08:07:52.506Z</time>
      </trkpt>
      <trkpt lat="45.03264" lon="5.50761">
        <ele>1211.252</ele>
        <time>2013-03-21T08:07:59.852Z</time>
      </trkpt>
      <trkpt lat="45.03273" lon="5.50765">
        <ele>1211.562</ele>
        <time>2013-03-21T08:08:05.811Z</time>
      </trkpt>
      <trkpt lat="45.03282" lon="5.50769">
        <ele>1211.555</ele>
        <time>2013-03-21T08:08:10.713Z</time>
      </trkpt>
      <trkpt lat="45.03294" lon="5.50771">
        <ele>1210.118</ele>
        <time>2013-03-21T08:08:15.940Z</time>
      </trkpt>
      <trkpt lat="45.03307" lon="5.50771">
        <ele>1206.886</ele>
        <time>2013-03-21T08:08:22.714Z</time>
      </trkpt>
      <trkpt lat="45.03316" lon="5.50773">
        <ele>1203.313</ele>
        <time>2013-03-21T08:08:26.516Z</time>
      </trkpt>
      <trkpt lat="45.03329" lon="5.5077">
        <ele>1201.131</ele>
        <time>2013-03-21T08:08:32.027Z</time>
      </trkpt>
      <trkpt lat="45.0334" lon="5.50766">
        <ele>1201.481</ele>
        <time>2013-03-21T08:08:37.415Z</time>
      </trkpt>
      <trkpt lat="45.03351" lon="5.50762">
        <ele>1204.192</ele>
        <time>2013-03-21T08:08:43.751Z</time>
      </trkpt>
      <trkpt lat="45.0336" lon="5.50758">
        <ele>1208.316</ele>
        <time>2013-03-21T08:08:49.286Z</time>
      </trkpt>
      <trkpt lat="45.03369" lon="5.50756">
        <ele>1213.581</ele>
        <time>2013-03-21T08:08:54.278Z</time>
      </trkpt>
      <trkpt lat="45.03378" lon="5.50755">
        <ele>1218.839</ele>
        <time>2013-03-21T08:08:58.656Z</time>
      </trkpt>
      <trkpt lat="45.03387" lon="5.5075">
        <ele>1222.197</ele>
        <time>2013-03-21T08:09:03.018Z</time>
      </trkpt>
      <trkpt lat="45.03398" lon="5.50746">
        <ele>1223.487</ele>
        <time>2013-03-21T08:09:08.037Z</time>
      </trkpt>
      <trkpt lat="45.03407" lon="5.50745">
        <ele>1223.555</ele>
        <time>2013-03-21T08:09:12.354Z</time>
      </trkpt>
      <trkpt lat="45.03416" lon="5.50752">
        <ele>1223.125</ele>
        <time>2013-03-21T08:09:16.733Z</time>
      </trkpt>
      <trkpt lat="45.03423" lon="5.5076">
        <ele>1221.576</ele>
        <time>2013-03-21T08:09:20.290Z</time>
      </trkpt>
      <trkpt lat="45.0343" lon="5.5077">
        <ele>1218.412</ele>
        <time>2013-03-21T08:09:23.742Z</time>
      </trkpt>
      <trkpt lat="45.03436" lon="5.5078">
        <ele>1215.353</ele>
        <time>2013-03-21T08:09:27.086Z</time>
      </trkpt>
      <trkpt lat="45.03445" lon="5.50791">
        <ele>1213.637</ele>
        <time>2013-03-21T08:09:31.536Z</time>
      </trkpt>
      <trkpt lat="45.03457" lon="5.50795">
        <ele>1211.362</ele>
        <time>2013-03-21T08:09:36.930Z</time>
      </trkpt>
      <trkpt lat="45.03469" lon="5.50794">
        <ele>1206.527</ele>
        <time>2013-03-21T08:09:42.462Z</time>
      </trkpt>
      <trkpt lat="45.03479" lon="5.50791">
        <ele>1200.298</ele>
        <time>2013-03-21T08:09:46.570Z</time>
      </trkpt>
      <trkpt lat="45.03488" lon="5.50792">
        <ele>1194.691</ele>
        <time>2013-03-21T08:09:49.389Z</time>
      </trkpt>
      <trkpt lat="45.035" lon="5.50796">
        <ele>1191.221</ele>
        <time>2013-03-21T08:09:52.116Z</time>
      </trkpt>
      <trkpt lat="45.0351" lon="5.508">
        <ele>1190.348</ele>
        <time>2013-03-21T08:09:54.076Z</time>
      </trkpt>
      <trkpt lat="45.0352" lon="5.50803">
        <ele>1190.954</ele>
        <time>2013-03-21T08:09:55.928Z</time>
      </trkpt>
      <trkpt lat="45.0353" lon="5.50802">
        <ele>1192.035</ele>
        <time>2013-03-21T08:09:57.670Z</time>
      </trkpt>
      <trkpt lat="45.03543" lon="5.50805">
        <ele>1194.946</ele>
        <time>2013-03-21T08:09:59.827Z</time>
      </trkpt>
      <trkpt lat="45.03553" lon="5.50802">
        <ele>1201.485</ele>
        <time>2013-03-21T08:10:01.735Z</time>
      </trkpt>
      <trkpt lat="45.03563" lon="5.50796">
        <ele>1211.139</ele>
        <time>2013-03-21T08:10:03.532Z</time>
      </trkpt>
      <trkpt lat="45.03574" lon="5.50792">
        <ele>1220.207</ele>
        <time>2013-03-21T08:10:05.695Z</time>
      </trkpt>
      <trkpt lat="45.03583" lon="5.5079">
        <ele>1226.292</ele>
        <time>2013-03-21T08:10:07.627Z</time>
      </trkpt>
      <trkpt lat="45.03592" lon="5.50796">
        <ele>1230.15</ele>
        <time>2013-03-21T08:10:09.821Z</time>
      </trkpt>
      <trkpt lat="45.03602" lon="5.50799">
        <ele>1233.103</ele>
        <time>2013-03-21T08:10:12.029Z</time>
      </trkpt>
      <trkpt lat="45.03612" lon="5.50799">
        <ele>1235.06</ele>
        <time>2013-03-21T08:10:14.583Z</time>
      </trkpt>
      <trkpt lat="45.03621" lon="5.50797">
        <ele>1235.469</ele>
        <time>2013-03-21T08:10:17.358Z</time>
      </trkpt>
      <trkpt lat="45.03631" lon="5.50795">
        <ele>1233.988</ele>
        <time>2013-03-21T08:10:20.662Z</time>
      </trkpt>
      <trkpt lat="45.0364" lon="5.50796">
        <ele>1230.564</ele>
        <time>2013-03-21T08:10:23.820Z</time>
      </trkpt>
      <trkpt lat="45.03651" lon="5.50796">
        <ele>1225.121</ele>
        <time>2013-03-21T08:10:28.389Z</time>
      </trkpt>
      <trkpt lat="45.03661" lon="5.50795">
        <ele>1218.794</ele>
        <time>2013-03-21T08:10:33.686Z</time>
      </trkpt>
      <trkpt lat="45.03669" lon="5.50797">
        <ele>1214.268</ele>
        <time>2013-03-21T08:10:40.434Z</time>
      </trkpt>
      <trkpt lat="45.03679" lon="5.508">
        <ele>1213.561</ele>
        <time>2013-03-21T08:10:46.658Z</time>
      </trkpt>
      <trkpt lat="45.0369" lon="5.50805">
        <ele>1215.962</ele>
        <time>2013-03-21T08:10:52.693Z</time>
      </trkpt>
      <trkpt lat="45.03702" lon="5.50813">
        <ele>1218.999</ele>
        <time>2013-03-21T08:10:59.147Z</time>
      </trkpt>
      <trkpt lat="45.03712" lon="5.50823">
        <ele>1221.591</ele>
        <time>2013-03-21T08:11:04.657Z</time>
      </trkpt>
      <trkpt lat="45.0372" lon="5.50831">
        <ele>1224.163</ele>
        <time>2013-03-21T08:11:08.749Z</time>
      </trkpt>
      <trkpt lat="45.03728" lon="5.50842">
        <ele>1226.217</ele>
        <time>2013-03-21T08:11:12.829Z</time>
      </trkpt>
      <trkpt lat="45.03736" lon="5.50859">
        <ele>1226.802</ele>
        <time>2013-03-21T08:11:17.598Z</time>
      </trkpt>
      <trkpt lat="45.03743" lon="5.50869">
        <ele>1226.066</ele>
        <time>2013-03-21T08:11:20.385Z</time>
      </trkpt>
      <trkpt lat="45.03748" lon="5.50882">
        <ele>1225.028</ele>
        <time>2013-03-21T08:11:23.505Z</time>
      </trkpt>
      <trkpt lat="45.03754" lon="5.50894">
        <ele>1223.729</ele>
        <time>2013-03-21T08:11:26.658Z</time>
      </trkpt>
      <trkpt lat="45.03762" lon="5.50904">
        <ele>1221.619</ele>
        <time>2013-03-21T08:11:29.987Z</time>
      </trkpt>
      <trkpt lat="45.03772" lon="5.50905">
        <ele>1219.604</ele>
        <time>2013-03-21T08:11:33.443Z</time>
      </trkpt>
      <trkpt lat="45.03782" lon="5.50904">
        <ele>1219.75</ele>
        <time>2013-03-21T08:11:36.653Z</time>
      </trkpt>
      <trkpt lat="45.03791" lon="5.50905">
        <ele>1222.438</ele>
        <time>2013-03-21T08:11:39.806Z</time>
      </trkpt>
      <trkpt lat="45.03801" lon="5.50904">
        <ele>1225.821</ele>
        <time>2013-03-21T08:11:42.635Z</time>
      </trkpt>
      <trkpt lat="45.0381" lon="5.509">
        <ele>1228.186</ele>
        <time>2013-03-21T08:11:45.541Z</time>
      </trkpt>
      <trkpt lat="45.0382" lon="5.50894">
        <ele>1229.512</ele>
        <time>2013-03-21T08:11:49.535Z</time>
      </trkpt>
      <trkpt lat="45.03831" lon="5.5089">
        <ele>1230.237</ele>
        <time>2013-03-21T08:11:55.225Z</time>
      </trkpt>
      <trkpt lat="45.0384" lon="5.50889">
        <ele>1230.57</ele>
        <time>2013-03-21T08:12:00.748Z</time>
      </trkpt>
      <trkpt lat="45.0385" lon="5.50886">
        <ele>1230.547</ele>
        <time>2013-03-21T08:12:06.153Z</time>
      </trkpt>
      <trkpt lat="45.03859" lon="5.50889">
        <ele>1230.399</ele>
        <time>2013-03-21T08:12:11.041Z</time>
      </trkpt>
      <trkpt lat="45.03872" lon="5.50893">
        <ele>1230.192</ele>
        <time>2013-03-21T08:12:17.362Z</time>
      </trkpt>
      <trkpt lat="45.03884" lon="5.50892">
        <ele>1229.888</ele>
        <time>2013-03-21T08:12:23.522Z</time>
      </trkpt>
      <trkpt lat="45.03897" lon="5.50889">
        <ele>1230.025</ele>
        <time>2013-03-21T08:12:28.984Z</time>
      </trkpt>
      <trkpt lat="45.03907" lon="5.50889">
        <ele>1231.793</ele>
        <time>2013-03-21T08:12:32.866Z</time>
      </trkpt>
      <trkpt lat="45.03918" lon="5.50893">
        <ele>1235.301</ele>
        <time>2013-03-21T08:12:37.615Z</time>
      </trkpt>
      <trkpt lat="45.03927" lon="5.50905">
        <ele>1239.623</ele>
        <time>2013-03-21T08:12:41.989Z</time>
      </trkpt>
      <trkpt lat="45.03935" lon="5.50913">
        <ele>1243.703</ele>
        <time>2013-03-21T08:12:45.445Z</time>
      </trkpt>
      <trkpt lat="45.03948" lon="5.50914">
        <ele>1245.803</ele>
        <time>2013-03-21T08:12:49.114Z</time>
      </trkpt>
      <trkpt lat="45.03957" lon="5.50909">
        <ele>1244.178</ele>
        <time>2013-03-21T08:12:51.651Z</time>
      </trkpt>
      <trkpt lat="45.03967" lon="5.509">
        <ele>1239.502</ele>
        <time>2013-03-21T08:12:54.317Z</time>
      </trkpt>
      <trkpt lat="45.03978" lon="5.50891">
        <ele>1233.533</ele>
        <time>2013-03-21T08:12:57.250Z</time>
      </trkpt>
      <trkpt lat="45.03987" lon="5.5088">
        <ele>1227.759</ele>
        <time>2013-03-21T08:12:59.987Z</time>
      </trkpt>
      <trkpt lat="45.03999" lon="5.50872">
        <ele>1223.414</ele>
        <time>2013-03-21T08:13:03.678Z</time>
      </trkpt>
      <trkpt lat="45.04011" lon="5.50873">
        <ele>1221.013</ele>
        <time>2013-03-21T08:13:07.257Z</time>
      </trkpt>
      <trkpt lat="45.04009" lon="5.50859">
        <ele>1220.499</ele>
        <time>2013-03-21T08:13:10.094Z</time>
      </trkpt>
      <trkpt lat="45.04007" lon="5.50845">
        <ele>1223.131</ele>
        <time>2013-03-21T08:13:13.075Z</time>
      </trkpt>
      <trkpt lat="45.04005" lon="5.50829">
        <ele>1228.633</ele>
        <time>2013-03-21T08:13:17.352Z</time>
      </trkpt>
      <trkpt lat="45.04003" lon="5.50813">
        <ele>1233.634</ele>
        <time>2013-03-21T08:13:21.267Z</time>
      </trkpt>
      <trkpt lat="45.04003" lon="5.50798">
        <ele>1235.976</ele>
        <time>2013-03-21T08:13:24.744Z</time>
      </trkpt>
      <trkpt lat="45.04003" lon="5.50785">
        <ele>1236.631</ele>
        <time>2013-03-21T08:13:27.622Z</time>
      </trkpt>
      <trkpt lat="45.04002" lon="5.50771">
        <ele>1236.764</ele>
        <time>2013-03-21T08:13:30.841Z</time>
      </trkpt>
      <trkpt lat="45.04002" lon="5.50758">
        <ele>1236.87</ele>
        <time>2013-03-21T08:13:33.936Z</time>
      </trkpt>
      <trkpt lat="45.04001" lon="5.50744">
        <ele>1236.594</ele>
        <time>2013-03-21T08:13:37.314Z</time>
      </trkpt>
      <trkpt lat="45.03999" lon="5.5073">
        <ele>1235.203</ele>
        <time>2013-03-21T08:13:41.415Z</time>
      </trkpt>
      <trkpt lat="45.03996" lon="5.50717">
        <ele>1233.457</ele>
        <time>2013-03-21T08:13:45.208Z</time>
      </trkpt>
      <trkpt lat="45.03991" lon="5.50704">
        <ele>1232.849</ele>
        <time>2013-03-21T08:13:49.968Z</time>
      </trkpt>
      <trkpt lat="45.03988" lon="5.50692">
        <ele>1234.37</ele>
        <time>2013-03-21T08:13:54.132Z</time>
      </trkpt>
      <trkpt lat="45.03986" lon="5.50678">
        <ele>1237.708</ele>
        <time>2013-03-21T08:13:58.801Z</time>
      </trkpt>
      <trkpt lat="45.03986" lon="5.50662">
        <ele>1240.763</ele>
        <time>2013-03-21T08:14:03.851Z</time>
      </trkpt>
      <trkpt lat="45.03985" lon="5.50648">
        <ele>1241.904</ele>
        <time>2013-03-21T08:14:08.673Z</time>
      </trkpt>
      <trkpt lat="45.03981" lon="5.50634">
        <ele>1242.028</ele>
        <time>2013-03-21T08:14:13.415Z</time>
      </trkpt>
      <trkpt lat="45.03976" lon="5.50622">
        <ele>1242.723</ele>
        <time>2013-03-21T08:14:17.918Z</time>
      </trkpt>
      <trkpt lat="45.03973" lon="5.50608">
        <ele>1244.653</ele>
        <time>2013-03-21T08:14:23.050Z</time>
      </trkpt>
      <trkpt lat="45.03971" lon="5.50594">
        <ele>1247.016</ele>
        <time>2013-03-21T08:14:27.534Z</time>
      </trkpt>
      <trkpt lat="45.03969" lon="5.50579">
        <ele>1248.639</ele>
        <time>2013-03-21T08:14:32.563Z</time>
      </trkpt>
      <trkpt lat="45.03967" lon="5.50565">
        <ele>1249.395</ele>
        <time>2013-03-21T08:14:37.273Z</time>
      </trkpt>
      <trkpt lat="45.03965" lon="5.50551">
        <ele>1249.818</ele>
        <time>2013-03-21T08:14:41.533Z</time>
      </trkpt>
      <trkpt lat="45.03963" lon="5.50539">
        <ele>1249.888</ele>
        <time>2013-03-21T08:14:45.743Z</time>
      </trkpt>
      <trkpt lat="45.03958" lon="5.50529">
        <ele>1249.359</ele>
        <time>2013-03-21T08:14:50.069Z</time>
      </trkpt>
      <trkpt lat="45.03951" lon="5.5052">
        <ele>1248.583</ele>
        <time>2013-03-21T08:14:54.700Z</time>
      </trkpt>
      <trkpt lat="45.03943" lon="5.5051">
        <ele>1248.183</ele>
        <time>2013-03-21T08:15:00.136Z</time>
      </trkpt>
      <trkpt lat="45.03936" lon="5.50503">
        <ele>1248.32</ele>
        <time>2013-03-21T08:15:05.220Z</time>
      </trkpt>
      <trkpt lat="45.03928" lon="5.50494">
        <ele>1248.654</ele>
        <time>2013-03-21T08:15:10.896Z</time>
      </trkpt>
      <trkpt lat="45.03921" lon="5.50484">
        <ele>1249.606</ele>
        <time>2013-03-21T08:15:16.100Z</time>
      </trkpt>
      <trkpt lat="45.03919" lon="5.50472">
        <ele>1251.986</ele>
        <time>2013-03-21T08:15:21.257Z</time>
      </trkpt>
      <trkpt lat="45.03922" lon="5.50459">
        <ele>1254.959</ele>
        <time>2013-03-21T08:15:26.556Z</time>
      </trkpt>
      <trkpt lat="45.03926" lon="5.50443">
        <ele>1256.83</ele>
        <time>2013-03-21T08:15:33.128Z</time>
      </trkpt>
      <trkpt lat="45.03927" lon="5.50429">
        <ele>1256.98</ele>
        <time>2013-03-21T08:15:39.048Z</time>
      </trkpt>
      <trkpt lat="45.03933" lon="5.50415">
        <ele>1255.978</ele>
        <time>2013-03-21T08:15:45.545Z</time>
      </trkpt>
      <trkpt lat="45.03937" lon="5.50402">
        <ele>1254.149</ele>
        <time>2013-03-21T08:15:51.994Z</time>
      </trkpt>
      <trkpt lat="45.03939" lon="5.50387">
        <ele>1251.651</ele>
        <time>2013-03-21T08:15:58.311Z</time>
      </trkpt>
      <trkpt lat="45.03939" lon="5.50374">
        <ele>1250.873</ele>
        <time>2013-03-21T08:16:03.659Z</time>
      </trkpt>
      <trkpt lat="45.03935" lon="5.5036">
        <ele>1254.03</ele>
        <time>2013-03-21T08:16:09.931Z</time>
      </trkpt>
      <trkpt lat="45.03932" lon="5.50346">
        <ele>1259.03</ele>
        <time>2013-03-21T08:16:15.678Z</time>
      </trkpt>
      <trkpt lat="45.03927" lon="5.50335">
        <ele>1262.523</ele>
        <time>2013-03-21T08:16:20.999Z</time>
      </trkpt>
      <trkpt lat="45.0392" lon="5.50325">
        <ele>1263.706</ele>
        <time>2013-03-21T08:16:26.762Z</time>
      </trkpt>
      <trkpt lat="45.03911" lon="5.50319">
        <ele>1263.481</ele>
        <time>2013-03-21T08:16:32.221Z</time>
      </trkpt>
      <trkpt lat="45.03904" lon="5.5031">
        <ele>1263.259</ele>
        <time>2013-03-21T08:16:37.285Z</time>
      </trkpt>
      <trkpt lat="45.03898" lon="5.50301">
        <ele>1264.016</ele>
        <time>2013-03-21T08:16:42.664Z</time>
      </trkpt>
      <trkpt lat="45.03892" lon="5.5029">
        <ele>1265.495</ele>
        <time>2013-03-21T08:16:48.324Z</time>
      </trkpt>
      <trkpt lat="45.03887" lon="5.50279">
        <ele>1267.003</ele>
        <time>2013-03-21T08:16:53.681Z</time>
      </trkpt>
      <trkpt lat="45.0388" lon="5.50268">
        <ele>1268.212</ele>
        <time>2013-03-21T08:16:59.018Z</time>
      </trkpt>
      <trkpt lat="45.03873" lon="5.50257">
        <ele>1268.909</ele>
        <time>2013-03-21T08:17:04.129Z</time>
      </trkpt>
      <trkpt lat="45.03865" lon="5.50249">
        <ele>1268.709</ele>
        <time>2013-03-21T08:17:09.573Z</time>
      </trkpt>
      <trkpt lat="45.03859" lon="5.50239">
        <ele>1267.337</ele>
        <time>2013-03-21T08:17:15.011Z</time>
      </trkpt>
      <trkpt lat="45.03852" lon="5.5023">
        <ele>1265.39</ele>
        <time>2013-03-21T08:17:20.568Z</time>
      </trkpt>
      <trkpt lat="45.03847" lon="5.50215">
        <ele>1264.538</ele>
        <time>2013-03-21T08:17:27.582Z</time>
      </trkpt>
      <trkpt lat="45.03845" lon="5.50201">
        <ele>1265.591</ele>
        <time>2013-03-21T08:17:33.328Z</time>
      </trkpt>
      <trkpt lat="45.03848" lon="5.50187">
        <ele>1267.416</ele>
        <time>2013-03-21T08:17:38.957Z</time>
      </trkpt>
      <trkpt lat="45.03854" lon="5.50176">
        <ele>1267.566</ele>
        <time>2013-03-21T08:17:43.710Z</time>
      </trkpt>
      <trkpt lat="45.03861" lon="5.50166">
        <ele>1264.722</ele>
        <time>2013-03-21T08:17:48.792Z</time>
      </trkpt>
      <trkpt lat="45.03867" lon="5.50154">
        <ele>1260.597</ele>
        <time>2013-03-21T08:17:53.470Z</time>
      </trkpt>
      <trkpt lat="45.03871" lon="5.50142">
        <ele>1258.038</ele>
        <time>2013-03-21T08:17:58.420Z</time>
      </trkpt>
      <trkpt lat="45.03873" lon="5.50126">
        <ele>1257.912</ele>
        <time>2013-03-21T08:18:04.199Z</time>
      </trkpt>
      <trkpt lat="45.03874" lon="5.50112">
        <ele>1259.641</ele>
        <time>2013-03-21T08:18:09.293Z</time>
      </trkpt>
      <trkpt lat="45.03879" lon="5.501">
        <ele>1262.869</ele>
        <time>2013-03-21T08:18:14.204Z</time>
      </trkpt>
      <trkpt lat="45.03886" lon="5.50089">
        <ele>1267.403</ele>
        <time>2013-03-21T08:18:19.053Z</time>
      </trkpt>
      <trkpt lat="45.03894" lon="5.5008">
        <ele>1271.881</ele>
        <time>2013-03-21T08:18:23.335Z</time>
      </trkpt>
      <trkpt lat="45.03902" lon="5.5007">
        <ele>1273.661</ele>
        <time>2013-03-21T08:18:27.796Z</time>
      </trkpt>
      <trkpt lat="45.0391" lon="5.50063">
        <ele>1271.247</ele>
        <time>2013-03-21T08:18:31.601Z</time>
      </trkpt>
      <trkpt lat="45.03919" lon="5.50058">
        <ele>1265.943</ele>
        <time>2013-03-21T08:18:35.129Z</time>
      </trkpt>
      <trkpt lat="45.03928" lon="5.50053">
        <ele>1260.678</ele>
        <time>2013-03-21T08:18:38.825Z</time>
      </trkpt>
      <trkpt lat="45.03938" lon="5.5005">
        <ele>1257.833</ele>
        <time>2013-03-21T08:18:42.566Z</time>
      </trkpt>
      <trkpt lat="45.03947" lon="5.50047">
        <ele>1257.907</ele>
        <time>2013-03-21T08:18:45.779Z</time>
      </trkpt>
      <trkpt lat="45.03957" lon="5.50047">
        <ele>1259.913</ele>
        <time>2013-03-21T08:18:49.359Z</time>
      </trkpt>
      <trkpt lat="45.03967" lon="5.50046">
        <ele>1262.454</ele>
        <time>2013-03-21T08:18:52.591Z</time>
      </trkpt>
      <trkpt lat="45.03979" lon="5.50045">
        <ele>1263.962</ele>
        <time>2013-03-21T08:18:56.709Z</time>
      </trkpt>
      <trkpt lat="45.03991" lon="5.50045">
        <ele>1263.265</ele>
        <time>2013-03-21T08:19:00.445Z</time>
      </trkpt>
      <trkpt lat="45.04001" lon="5.50044">
        <ele>1260.855</ele>
        <time>2013-03-21T08:19:03.744Z</time>
      </trkpt>
      <trkpt lat="45.0401" lon="5.50046">
        <ele>1258.581</ele>
        <time>2013-03-21T08:19:06.447Z</time>
      </trkpt>
      <trkpt lat="45.0402" lon="5.50047">
        <ele>1258.701</ele>
        <time>2013-03-21T08:19:09.296Z</time>
      </trkpt>
      <trkpt lat="45.04031" lon="5.50049">
        <ele>1261.52</ele>
        <time>2013-03-21T08:19:12.279Z</time>
      </trkpt>
      <trkpt lat="45.04042" lon="5.5005">
        <ele>1264.532</ele>
        <time>2013-03-21T08:19:15.503Z</time>
      </trkpt>
      <trkpt lat="45.04052" lon="5.5005">
        <ele>1265.691</ele>
        <time>2013-03-21T08:19:18.324Z</time>
      </trkpt>
      <trkpt lat="45.04063" lon="5.50049">
        <ele>1265.855</ele>
        <time>2013-03-21T08:19:21.672Z</time>
      </trkpt>
      <trkpt lat="45.04074" lon="5.50053">
        <ele>1266.233</ele>
        <time>2013-03-21T08:19:24.803Z</time>
      </trkpt>
      <trkpt lat="45.04084" lon="5.50057">
        <ele>1266.567</ele>
        <time>2013-03-21T08:19:28.146Z</time>
      </trkpt>
      <trkpt lat="45.04096" lon="5.50062">
        <ele>1266.235</ele>
        <time>2013-03-21T08:19:31.809Z</time>
      </trkpt>
      <trkpt lat="45.04107" lon="5.50065">
        <ele>1265.326</ele>
        <time>2013-03-21T08:19:35.338Z</time>
      </trkpt>
      <trkpt lat="45.04118" lon="5.50066">
        <ele>1264.482</ele>
        <time>2013-03-21T08:19:38.860Z</time>
      </trkpt>
      <trkpt lat="45.0413" lon="5.50063">
        <ele>1264.075</ele>
        <time>2013-03-21T08:19:42.582Z</time>
      </trkpt>
      <trkpt lat="45.04141" lon="5.50063">
        <ele>1262.931</ele>
        <time>2013-03-21T08:19:45.910Z</time>
      </trkpt>
      <trkpt lat="45.0415" lon="5.50061">
        <ele>1260.236</ele>
        <time>2013-03-21T08:19:49.100Z</time>
      </trkpt>
      <trkpt lat="45.04159" lon="5.50058">
        <ele>1257.408</ele>
        <time>2013-03-21T08:19:52.413Z</time>
      </trkpt>
      <trkpt lat="45.04169" lon="5.50054">
        <ele>1255.34</ele>
        <time>2013-03-21T08:19:56.453Z</time>
      </trkpt>
      <trkpt lat="45.04177" lon="5.50047">
        <ele>1253.498</ele>
        <time>2013-03-21T08:20:00.063Z</time>
      </trkpt>
      <trkpt lat="45.04185" lon="5.50041">
        <ele>1251.88</ele>
        <time>2013-03-21T08:20:03.554Z</time>
      </trkpt>
      <trkpt lat="45.04194" lon="5.50036">
        <ele>1250.966</ele>
        <time>2013-03-21T08:20:07.420Z</time>
      </trkpt>
      <trkpt lat="45.04204" lon="5.50026">
        <ele>1250.847</ele>
        <time>2013-03-21T08:20:12.165Z</time>
      </trkpt>
      <trkpt lat="45.04212" lon="5.50019">
        <ele>1251.976</ele>
        <time>2013-03-21T08:20:15.943Z</time>
      </trkpt>
      <trkpt lat="45.04221" lon="5.50011">
        <ele>1254.395</ele>
        <time>2013-03-21T08:20:20.431Z</time>
      </trkpt>
      <trkpt lat="45.04228" lon="5.50004">
        <ele>1256.538</ele>
        <time>2013-03-21T08:20:24.317Z</time>
      </trkpt>
      <trkpt lat="45.04236" lon="5.49996">
        <ele>1256.925</ele>
        <time>2013-03-21T08:20:28.554Z</time>
      </trkpt>
      <trkpt lat="45.04246" lon="5.49986">
        <ele>1256.246</ele>
        <time>2013-03-21T08:20:33.623Z</time>
      </trkpt>
      <trkpt lat="45.04252" lon="5.49973">
        <ele>1255.984</ele>
        <time>2013-03-21T08:20:38.247Z</time>
      </trkpt>
      <trkpt lat="45.04258" lon="5.49961">
        <ele>1257.18</ele>
        <time>2013-03-21T08:20:43.136Z</time>
      </trkpt>
      <trkpt lat="45.04263" lon="5.4995">
        <ele>1260.442</ele>
        <time>2013-03-21T08:20:47.254Z</time>
      </trkpt>
      <trkpt lat="45.04267" lon="5.49935">
        <ele>1264.912</ele>
        <time>2013-03-21T08:20:51.545Z</time>
      </trkpt>
      <trkpt lat="45.04264" lon="5.49923">
        <ele>1268.611</ele>
        <time>2013-03-21T08:20:54.766Z</time>
      </trkpt>
      <trkpt lat="45.04255" lon="5.49918">
        <ele>1272.544</ele>
        <time>2013-03-21T08:20:58.169Z</time>
      </trkpt>
      <trkpt lat="45.04245" lon="5.49911">
        <ele>1278.143</ele>
        <time>2013-03-21T08:21:01.496Z</time>
      </trkpt>
      <trkpt lat="45.04237" lon="5.49905">
        <ele>1282.668</ele>
        <time>2013-03-21T08:21:04.165Z</time>
      </trkpt>
      <trkpt lat="45.04227" lon="5.499">
        <ele>1283.737</ele>
        <time>2013-03-21T08:21:06.977Z</time>
      </trkpt>
      <trkpt lat="45.04218" lon="5.49896">
        <ele>1283.277</ele>
        <time>2013-03-21T08:21:09.348Z</time>
      </trkpt>
      <trkpt lat="45.04208" lon="5.4989">
        <ele>1283.41</ele>
        <time>2013-03-21T08:21:12.167Z</time>
      </trkpt>
      <trkpt lat="45.04196" lon="5.49885">
        <ele>1284.252</ele>
        <time>2013-03-21T08:21:15.239Z</time>
      </trkpt>
      <trkpt lat="45.04183" lon="5.49881">
        <ele>1285.195</ele>
        <time>2013-03-21T08:21:18.366Z</time>
      </trkpt>
      <trkpt lat="45.04172" lon="5.49876">
        <ele>1285.852</ele>
        <time>2013-03-21T08:21:21.225Z</time>
      </trkpt>
      <trkpt lat="45.0416" lon="5.49871">
        <ele>1285.625</ele>
        <time>2013-03-21T08:21:24.303Z</time>
      </trkpt>
      <trkpt lat="45.04149" lon="5.49865">
        <ele>1284.43</ele>
        <time>2013-03-21T08:21:27.008Z</time>
      </trkpt>
      <trkpt lat="45.0414" lon="5.49857">
        <ele>1283.483</ele>
        <time>2013-03-21T08:21:29.576Z</time>
      </trkpt>
      <trkpt lat="45.04133" lon="5.49846">
        <ele>1283.741</ele>
        <time>2013-03-21T08:21:32.109Z</time>
      </trkpt>
      <trkpt lat="45.04125" lon="5.49835">
        <ele>1284.479</ele>
        <time>2013-03-21T08:21:34.649Z</time>
      </trkpt>
      <trkpt lat="45.04118" lon="5.49824">
        <ele>1284.835</ele>
        <time>2013-03-21T08:21:37.189Z</time>
      </trkpt>
      <trkpt lat="45.04111" lon="5.49813">
        <ele>1284.857</ele>
        <time>2013-03-21T08:21:39.751Z</time>
      </trkpt>
      <trkpt lat="45.04103" lon="5.49804">
        <ele>1284.827</ele>
        <time>2013-03-21T08:21:42.211Z</time>
      </trkpt>
      <trkpt lat="45.04093" lon="5.49795">
        <ele>1284.678</ele>
        <time>2013-03-21T08:21:45.080Z</time>
      </trkpt>
      <trkpt lat="45.04085" lon="5.49786">
        <ele>1284.296</ele>
        <time>2013-03-21T08:21:47.599Z</time>
      </trkpt>
      <trkpt lat="45.04075" lon="5.49776">
        <ele>1283.901</ele>
        <time>2013-03-21T08:21:50.566Z</time>
      </trkpt>
      <trkpt lat="45.04064" lon="5.49771">
        <ele>1282.979</ele>
        <time>2013-03-21T08:21:53.602Z</time>
      </trkpt>
      <trkpt lat="45.04052" lon="5.49769">
        <ele>1280.611</ele>
        <time>2013-03-21T08:21:56.830Z</time>
      </trkpt>
      <trkpt lat="45.0404" lon="5.49772">
        <ele>1277.478</ele>
        <time>2013-03-21T08:22:00.012Z</time>
      </trkpt>
      <trkpt lat="45.04029" lon="5.49773">
        <ele>1275.038</ele>
        <time>2013-03-21T08:22:02.797Z</time>
      </trkpt>
      <trkpt lat="45.04017" lon="5.49775">
        <ele>1273.696</ele>
        <time>2013-03-21T08:22:05.867Z</time>
      </trkpt>
      <trkpt lat="45.04007" lon="5.49779">
        <ele>1273.258</ele>
        <time>2013-03-21T08:22:08.356Z</time>
      </trkpt>
      <trkpt lat="45.03993" lon="5.49782">
        <ele>1273.447</ele>
        <time>2013-03-21T08:22:11.564Z</time>
      </trkpt>
      <trkpt lat="45.03982" lon="5.49785">
        <ele>1273.98</ele>
        <time>2013-03-21T08:22:14.358Z</time>
      </trkpt>
      <trkpt lat="45.03971" lon="5.4979">
        <ele>1274.58</ele>
        <time>2013-03-21T08:22:17.128Z</time>
      </trkpt>
      <trkpt lat="45.0396" lon="5.49794">
        <ele>1274.949</ele>
        <time>2013-03-21T08:22:19.826Z</time>
      </trkpt>
      <trkpt lat="45.0395" lon="5.49797">
        <ele>1274.95</ele>
        <time>2013-03-21T08:22:22.332Z</time>
      </trkpt>
      <trkpt lat="45.03939" lon="5.49799">
        <ele>1274.358</ele>
        <time>2013-03-21T08:22:25.191Z</time>
      </trkpt>
      <trkpt lat="45.03928" lon="5.49801">
        <ele>1273.188</ele>
        <time>2013-03-21T08:22:27.722Z</time>
      </trkpt>
      <trkpt lat="45.03918" lon="5.49801">
        <ele>1272.8</ele>
        <time>2013-03-21T08:22:30.120Z</time>
      </trkpt>
      <trkpt lat="45.03905" lon="5.49802">
        <ele>1274.092</ele>
        <time>2013-03-21T08:22:33.292Z</time>
      </trkpt>
      <trkpt lat="45.03895" lon="5.49804">
        <ele>1275.446</ele>
        <time>2013-03-21T08:22:35.697Z</time>
      </trkpt>
      <trkpt lat="45.03881" lon="5.49808">
        <ele>1275.239</ele>
        <time>2013-03-21T08:22:39.106Z</time>
      </trkpt>
      <trkpt lat="45.0387" lon="5.49811">
        <ele>1274.199</ele>
        <time>2013-03-21T08:22:41.879Z</time>
      </trkpt>
      <trkpt lat="45.03858" lon="5.49814">
        <ele>1273.801</ele>
        <time>2013-03-21T08:22:44.676Z</time>
      </trkpt>
      <trkpt lat="45.03847" lon="5.49817">
        <ele>1274.378</ele>
        <time>2013-03-21T08:22:47.353Z</time>
      </trkpt>
      <trkpt lat="45.03838" lon="5.49818">
        <ele>1275.412</ele>
        <time>2013-03-21T08:22:49.844Z</time>
      </trkpt>
      <trkpt lat="45.03825" lon="5.49819">
        <ele>1276.219</ele>
        <time>2013-03-21T08:22:52.886Z</time>
      </trkpt>
      <trkpt lat="45.03815" lon="5.49818">
        <ele>1275.865</ele>
        <time>2013-03-21T08:22:55.571Z</time>
      </trkpt>
      <trkpt lat="45.03803" lon="5.49818">
        <ele>1274.235</ele>
        <time>2013-03-21T08:22:58.549Z</time>
      </trkpt>
      <trkpt lat="45.03789" lon="5.49816">
        <ele>1272.632</ele>
        <time>2013-03-21T08:23:01.792Z</time>
      </trkpt>
      <trkpt lat="45.03777" lon="5.49816">
        <ele>1271.96</ele>
        <time>2013-03-21T08:23:04.802Z</time>
      </trkpt>
      <trkpt lat="45.03766" lon="5.49818">
        <ele>1272.151</ele>
        <time>2013-03-21T08:23:07.533Z</time>
      </trkpt>
      <trkpt lat="45.03756" lon="5.4982">
        <ele>1272.657</ele>
        <time>2013-03-21T08:23:09.924Z</time>
      </trkpt>
      <trkpt lat="45.03744" lon="5.49823">
        <ele>1272.788</ele>
        <time>2013-03-21T08:23:12.792Z</time>
      </trkpt>
      <trkpt lat="45.03733" lon="5.49823">
        <ele>1272.281</ele>
        <time>2013-03-21T08:23:15.331Z</time>
      </trkpt>
      <trkpt lat="45.03723" lon="5.49826">
        <ele>1271.369</ele>
        <time>2013-03-21T08:23:17.817Z</time>
      </trkpt>
      <trkpt lat="45.03714" lon="5.49829">
        <ele>1270.3</ele>
        <time>2013-03-21T08:23:20.295Z</time>
      </trkpt>
      <trkpt lat="45.03705" lon="5.4983">
        <ele>1269.151</ele>
        <time>2013-03-21T08:23:22.600Z</time>
      </trkpt>
      <trkpt lat="45.03693" lon="5.49831">
        <ele>1268.038</ele>
        <time>2013-03-21T08:23:25.679Z</time>
      </trkpt>
      <trkpt lat="45.03684" lon="5.49833">
        <ele>1267.327</ele>
        <time>2013-03-21T08:23:28.278Z</time>
      </trkpt>
      <trkpt lat="45.03675" lon="5.49836">
        <ele>1267.257</ele>
        <time>2013-03-21T08:23:31.276Z</time>
      </trkpt>
      <trkpt lat="45.03663" lon="5.49836">
        <ele>1267.682</ele>
        <time>2013-03-21T08:23:35.104Z</time>
      </trkpt>
      <trkpt lat="45.03652" lon="5.49837">
        <ele>1268.169</ele>
        <time>2013-03-21T08:23:39.113Z</time>
      </trkpt>
      <trkpt lat="45.03643" lon="5.49841">
        <ele>1268.724</ele>
        <time>2013-03-21T08:23:42.584Z</time>
      </trkpt>
      <trkpt lat="45.03634" lon="5.4985">
        <ele>1269.602</ele>
        <time>2013-03-21T08:23:46.838Z</time>
      </trkpt>
      <trkpt lat="45.03627" lon="5.4986">
        <ele>1272.017</ele>
        <time>2013-03-21T08:23:50.204Z</time>
      </trkpt>
      <trkpt lat="45.03622" lon="5.4987">
        <ele>1276.491</ele>
        <time>2013-03-21T08:23:53.512Z</time>
      </trkpt>
      <trkpt lat="45.03613" lon="5.49877">
        <ele>1280.78</ele>
        <time>2013-03-21T08:23:57.294Z</time>
      </trkpt>
      <trkpt lat="45.03605" lon="5.49886">
        <ele>1283.131</ele>
        <time>2013-03-21T08:24:01.076Z</time>
      </trkpt>
      <trkpt lat="45.03597" lon="5.49893">
        <ele>1284.291</ele>
        <time>2013-03-21T08:24:05.479Z</time>
      </trkpt>
      <trkpt lat="45.03588" lon="5.49898">
        <ele>1284.807</ele>
        <time>2013-03-21T08:24:09.770Z</time>
      </trkpt>
      <trkpt lat="45.0358" lon="5.49905">
        <ele>1285.019</ele>
        <time>2013-03-21T08:24:14.345Z</time>
      </trkpt>
      <trkpt lat="45.03574" lon="5.49915">
        <ele>1285.644</ele>
        <time>2013-03-21T08:24:19.208Z</time>
      </trkpt>
      <trkpt lat="45.03568" lon="5.49925">
        <ele>1286.836</ele>
        <time>2013-03-21T08:24:24.434Z</time>
      </trkpt>
      <trkpt lat="45.03558" lon="5.49933">
        <ele>1287.901</ele>
        <time>2013-03-21T08:24:32.165Z</time>
      </trkpt>
      <trkpt lat="45.03547" lon="5.49939">
        <ele>1288.622</ele>
        <time>2013-03-21T08:24:42.089Z</time>
      </trkpt>
      <trkpt lat="45.03537" lon="5.49942">
        <ele>1289.46</ele>
        <time>2013-03-21T08:24:50.217Z</time>
      </trkpt>
      <trkpt lat="45.03527" lon="5.4995">
        <ele>1290.361</ele>
        <time>2013-03-21T08:24:57.278Z</time>
      </trkpt>
      <trkpt lat="45.03518" lon="5.49959">
        <ele>1290.675</ele>
        <time>2013-03-21T08:25:02.847Z</time>
      </trkpt>
      <trkpt lat="45.03509" lon="5.49964">
        <ele>1290.213</ele>
        <time>2013-03-21T08:25:07.735Z</time>
      </trkpt>
      <trkpt lat="45.03501" lon="5.49971">
        <ele>1289.512</ele>
        <time>2013-03-21T08:25:12.786Z</time>
      </trkpt>
      <trkpt lat="45.03492" lon="5.49974">
        <ele>1289.071</ele>
        <time>2013-03-21T08:25:17.805Z</time>
      </trkpt>
      <trkpt lat="45.03484" lon="5.49963">
        <ele>1288.669</ele>
        <time>2013-03-21T08:25:24.620Z</time>
      </trkpt>
      <trkpt lat="45.03481" lon="5.4995">
        <ele>1287.929</ele>
        <time>2013-03-21T08:25:31.677Z</time>
      </trkpt>
      <trkpt lat="45.03476" lon="5.49931">
        <ele>1287.044</ele>
        <time>2013-03-21T08:25:41.962Z</time>
      </trkpt>
      <trkpt lat="45.03469" lon="5.49914">
        <ele>1286.483</ele>
        <time>2013-03-21T08:25:49.014Z</time>
      </trkpt>
      <trkpt lat="45.03462" lon="5.49897">
        <ele>1286.356</ele>
        <time>2013-03-21T08:25:54.014Z</time>
      </trkpt>
      <trkpt lat="45.03455" lon="5.4988">
        <ele>1286.944</ele>
        <time>2013-03-21T08:25:57.793Z</time>
      </trkpt>
      <trkpt lat="45.03447" lon="5.49866">
        <ele>1288.284</ele>
        <time>2013-03-21T08:26:00.835Z</time>
      </trkpt>
      <trkpt lat="45.03441" lon="5.49855">
        <ele>1289.044</ele>
        <time>2013-03-21T08:26:03.130Z</time>
      </trkpt>
      <trkpt lat="45.03433" lon="5.49843">
        <ele>1287.96</ele>
        <time>2013-03-21T08:26:06.125Z</time>
      </trkpt>
      <trkpt lat="45.03426" lon="5.49833">
        <ele>1285.69</ele>
        <time>2013-03-21T08:26:08.624Z</time>
      </trkpt>
      <trkpt lat="45.03417" lon="5.49823">
        <ele>1283.714</ele>
        <time>2013-03-21T08:26:11.418Z</time>
      </trkpt>
      <trkpt lat="45.03411" lon="5.49812">
        <ele>1283.471</ele>
        <time>2013-03-21T08:26:14.039Z</time>
      </trkpt>
      <trkpt lat="45.0341" lon="5.49798">
        <ele>1285.227</ele>
        <time>2013-03-21T08:26:16.926Z</time>
      </trkpt>
      <trkpt lat="45.03408" lon="5.49783">
        <ele>1287.258</ele>
        <time>2013-03-21T08:26:20.594Z</time>
      </trkpt>
      <trkpt lat="45.03406" lon="5.49769">
        <ele>1287.508</ele>
        <time>2013-03-21T08:26:24.788Z</time>
      </trkpt>
      <trkpt lat="45.03406" lon="5.49755">
        <ele>1285.445</ele>
        <time>2013-03-21T08:26:30.154Z</time>
      </trkpt>
      <trkpt lat="45.03407" lon="5.49739">
        <ele>1281.843</ele>
        <time>2013-03-21T08:26:36.507Z</time>
      </trkpt>
      <trkpt lat="45.0341" lon="5.49726">
        <ele>1276.562</ele>
        <time>2013-03-21T08:26:42.464Z</time>
      </trkpt>
      <trkpt lat="45.03415" lon="5.49712">
        <ele>1269.875</ele>
        <time>2013-03-21T08:26:48.779Z</time>
      </trkpt>
      <trkpt lat="45.03418" lon="5.49698">
        <ele>1265.49</ele>
        <time>2013-03-21T08:26:54.915Z</time>
      </trkpt>
      <trkpt lat="45.03419" lon="5.49682">
        <ele>1266.457</ele>
        <time>2013-03-21T08:27:01.937Z</time>
      </trkpt>
      <trkpt lat="45.03413" lon="5.49672">
        <ele>1272.41</ele>
        <time>2013-03-21T08:27:07.700Z</time>
      </trkpt>
      <trkpt lat="45.03408" lon="5.49661">
        <ele>1282.154</ele>
        <time>2013-03-21T08:27:12.015Z</time>
      </trkpt>
      <trkpt lat="45.03403" lon="5.49651">
        <ele>1292.581</ele>
        <time>2013-03-21T08:27:16.020Z</time>
      </trkpt>
      <trkpt lat="45.03396" lon="5.49642">
        <ele>1299.446</ele>
        <time>2013-03-21T08:27:20.725Z</time>
      </trkpt>
      <trkpt lat="45.03389" lon="5.49634">
        <ele>1301.76</ele>
        <time>2013-03-21T08:27:25.931Z</time>
      </trkpt>
      <trkpt lat="45.0338" lon="5.49629">
        <ele>1301.541</ele>
        <time>2013-03-21T08:27:32.816Z</time>
      </trkpt>
      <trkpt lat="45.0337" lon="5.49632">
        <ele>1301.083</ele>
        <time>2013-03-21T08:27:40.715Z</time>
      </trkpt>
      <trkpt lat="45.0336" lon="5.49635">
        <ele>1301.397</ele>
        <time>2013-03-21T08:27:47.791Z</time>
      </trkpt>
      <trkpt lat="45.03349" lon="5.4964">
        <ele>1302.188</ele>
        <time>2013-03-21T08:27:55.556Z</time>
      </trkpt>
      <trkpt lat="45.0334" lon="5.49647">
        <ele>1302.999</ele>
        <time>2013-03-21T08:28:02.377Z</time>
      </trkpt>
      <trkpt lat="45.03332" lon="5.49653">
        <ele>1304.078</ele>
        <time>2013-03-21T08:28:08.017Z</time>
      </trkpt>
      <trkpt lat="45.03324" lon="5.49659">
        <ele>1306.188</ele>
        <time>2013-03-21T08:28:13.098Z</time>
      </trkpt>
      <trkpt lat="45.03312" lon="5.49659">
        <ele>1309.622</ele>
        <time>2013-03-21T08:28:19.140Z</time>
      </trkpt>
      <trkpt lat="45.03302" lon="5.49652">
        <ele>1312.662</ele>
        <time>2013-03-21T08:28:25.176Z</time>
      </trkpt>
      <trkpt lat="45.03294" lon="5.49644">
        <ele>1313.23</ele>
        <time>2013-03-21T08:28:30.206Z</time>
      </trkpt>
      <trkpt lat="45.03286" lon="5.49638">
        <ele>1311.707</ele>
        <time>2013-03-21T08:28:34.881Z</time>
      </trkpt>
      <trkpt lat="45.03277" lon="5.49629">
        <ele>1310.079</ele>
        <time>2013-03-21T08:28:39.264Z</time>
      </trkpt>
      <trkpt lat="45.03269" lon="5.4962">
        <ele>1309.606</ele>
        <time>2013-03-21T08:28:43.112Z</time>
      </trkpt>
      <trkpt lat="45.03258" lon="5.49615">
        <ele>1310.302</ele>
        <time>2013-03-21T08:28:47.210Z</time>
      </trkpt>
      <trkpt lat="45.03247" lon="5.49614">
        <ele>1313.144</ele>
        <time>2013-03-21T08:28:51.249Z</time>
      </trkpt>
      <trkpt lat="45.03239" lon="5.49608">
        <ele>1318.541</ele>
        <time>2013-03-21T08:28:54.900Z</time>
      </trkpt>
      <trkpt lat="45.03229" lon="5.49607">
        <ele>1323.469</ele>
        <time>2013-03-21T08:28:59.156Z</time>
      </trkpt>
      <trkpt lat="45.03218" lon="5.49607">
        <ele>1324.069</ele>
        <time>2013-03-21T08:29:04.828Z</time>
      </trkpt>
      <trkpt lat="45.03209" lon="5.49606">
        <ele>1320.213</ele>
        <time>2013-03-21T08:29:09.467Z</time>
      </trkpt>
      <trkpt lat="45.03199" lon="5.49602">
        <ele>1315.08</ele>
        <time>2013-03-21T08:29:14.562Z</time>
      </trkpt>
      <trkpt lat="45.03191" lon="5.49594">
        <ele>1312.078</ele>
        <time>2013-03-21T08:29:19.082Z</time>
      </trkpt>
      <trkpt lat="45.03181" lon="5.49587">
        <ele>1312.16</ele>
        <time>2013-03-21T08:29:23.577Z</time>
      </trkpt>
      <trkpt lat="45.03173" lon="5.49581">
        <ele>1315.454</ele>
        <time>2013-03-21T08:29:27.759Z</time>
      </trkpt>
      <trkpt lat="45.03165" lon="5.49574">
        <ele>1320.919</ele>
        <time>2013-03-21T08:29:32.232Z</time>
      </trkpt>
      <trkpt lat="45.03157" lon="5.49563">
        <ele>1325.678</ele>
        <time>2013-03-21T08:29:37.671Z</time>
      </trkpt>
      <trkpt lat="45.03153" lon="5.49552">
        <ele>1326.923</ele>
        <time>2013-03-21T08:29:42.542Z</time>
      </trkpt>
      <trkpt lat="45.03148" lon="5.49538">
        <ele>1323.883</ele>
        <time>2013-03-21T08:29:48.125Z</time>
      </trkpt>
      <trkpt lat="45.03141" lon="5.4953">
        <ele>1318.689</ele>
        <time>2013-03-21T08:29:52.641Z</time>
      </trkpt>
      <trkpt lat="45.03133" lon="5.49524">
        <ele>1315.004</ele>
        <time>2013-03-21T08:29:56.934Z</time>
      </trkpt>
      <trkpt lat="45.03122" lon="5.49527">
        <ele>1315.218</ele>
        <time>2013-03-21T08:30:01.976Z</time>
      </trkpt>
      <trkpt lat="45.03114" lon="5.49533">
        <ele>1319.206</ele>
        <time>2013-03-21T08:30:06.724Z</time>
      </trkpt>
      <trkpt lat="45.03104" lon="5.49539">
        <ele>1324.604</ele>
        <time>2013-03-21T08:30:12.556Z</time>
      </trkpt>
      <trkpt lat="45.03093" lon="5.49548">
        <ele>1328.771</ele>
        <time>2013-03-21T08:30:19.477Z</time>
      </trkpt>
      <trkpt lat="45.03082" lon="5.49553">
        <ele>1330.656</ele>
        <time>2013-03-21T08:30:25.300Z</time>
      </trkpt>
      <trkpt lat="45.03073" lon="5.49555">
        <ele>1330.337</ele>
        <time>2013-03-21T08:30:28.621Z</time>
      </trkpt>
      <trkpt lat="45.03059" lon="5.49558">
        <ele>1328.438</ele>
        <time>2013-03-21T08:30:32.576Z</time>
      </trkpt>
      <trkpt lat="45.03048" lon="5.49563">
        <ele>1325.708</ele>
        <time>2013-03-21T08:30:35.420Z</time>
      </trkpt>
      <trkpt lat="45.03035" lon="5.49568">
        <ele>1322.888</ele>
        <time>2013-03-21T08:30:38.320Z</time>
      </trkpt>
      <trkpt lat="45.03022" lon="5.49573">
        <ele>1320.707</ele>
        <time>2013-03-21T08:30:41.185Z</time>
      </trkpt>
      <trkpt lat="45.0301" lon="5.49575">
        <ele>1320.027</ele>
        <time>2013-03-21T08:30:43.567Z</time>
      </trkpt>
      <trkpt lat="45.02992" lon="5.49568">
        <ele>1320.997</ele>
        <time>2013-03-21T08:30:47.175Z</time>
      </trkpt>
      <trkpt lat="45.02978" lon="5.4956">
        <ele>1322.68</ele>
        <time>2013-03-21T08:30:49.559Z</time>
      </trkpt>
      <trkpt lat="45.0296" lon="5.49553">
        <ele>1324.242</ele>
        <time>2013-03-21T08:30:52.462Z</time>
      </trkpt>
      <trkpt lat="45.02947" lon="5.49553">
        <ele>1325.449</ele>
        <time>2013-03-21T08:30:54.468Z</time>
      </trkpt>
      <trkpt lat="45.02936" lon="5.49554">
        <ele>1325.368</ele>
        <time>2013-03-21T08:30:56.454Z</time>
      </trkpt>
      <trkpt lat="45.02924" lon="5.49556">
        <ele>1323.574</ele>
        <time>2013-03-21T08:30:58.757Z</time>
      </trkpt>
      <trkpt lat="45.02911" lon="5.4956">
        <ele>1321.38</ele>
        <time>2013-03-21T08:31:01.234Z</time>
      </trkpt>
      <trkpt lat="45.02898" lon="5.49565">
        <ele>1319.939</ele>
        <time>2013-03-21T08:31:03.867Z</time>
      </trkpt>
      <trkpt lat="45.02889" lon="5.4957">
        <ele>1318.331</ele>
        <time>2013-03-21T08:31:05.760Z</time>
      </trkpt>
      <trkpt lat="45.02877" lon="5.49578">
        <ele>1315.712</ele>
        <time>2013-03-21T08:31:08.216Z</time>
      </trkpt>
      <trkpt lat="45.02868" lon="5.49584">
        <ele>1313.08</ele>
        <time>2013-03-21T08:31:10.222Z</time>
      </trkpt>
      <trkpt lat="45.02859" lon="5.49593">
        <ele>1311.112</ele>
        <time>2013-03-21T08:31:12.375Z</time>
      </trkpt>
      <trkpt lat="45.02852" lon="5.49604">
        <ele>1309.321</ele>
        <time>2013-03-21T08:31:14.657Z</time>
      </trkpt>
      <trkpt lat="45.02846" lon="5.49613">
        <ele>1308.078</ele>
        <time>2013-03-21T08:31:16.764Z</time>
      </trkpt>
      <trkpt lat="45.02837" lon="5.49624">
        <ele>1307.831</ele>
        <time>2013-03-21T08:31:19.505Z</time>
      </trkpt>
      <trkpt lat="45.02829" lon="5.49631">
        <ele>1306.203</ele>
        <time>2013-03-21T08:31:22.005Z</time>
      </trkpt>
      <trkpt lat="45.02817" lon="5.49634">
        <ele>1300.751</ele>
        <time>2013-03-21T08:31:25.141Z</time>
      </trkpt>
      <trkpt lat="45.02805" lon="5.49637">
        <ele>1293.201</ele>
        <time>2013-03-21T08:31:28.463Z</time>
      </trkpt>
      <trkpt lat="45.02795" lon="5.49639">
        <ele>1286.921</ele>
        <time>2013-03-21T08:31:31.431Z</time>
      </trkpt>
      <trkpt lat="45.02779" lon="5.49641">
        <ele>1283.161</ele>
        <time>2013-03-21T08:31:35.440Z</time>
      </trkpt>
      <trkpt lat="45.02768" lon="5.49641">
        <ele>1281.777</ele>
        <time>2013-03-21T08:31:38.365Z</time>
      </trkpt>
      <trkpt lat="45.02754" lon="5.4964">
        <ele>1282.411</ele>
        <time>2013-03-21T08:31:41.952Z</time>
      </trkpt>
      <trkpt lat="45.02741" lon="5.49643">
        <ele>1284.782</ele>
        <time>2013-03-21T08:31:45.352Z</time>
      </trkpt>
      <trkpt lat="45.02728" lon="5.49649">
        <ele>1289.441</ele>
        <time>2013-03-21T08:31:49.408Z</time>
      </trkpt>
      <trkpt lat="45.02716" lon="5.49656">
        <ele>1297.071</ele>
        <time>2013-03-21T08:31:53.299Z</time>
      </trkpt>
      <trkpt lat="45.02706" lon="5.49666">
        <ele>1306.213</ele>
        <time>2013-03-21T08:31:57.090Z</time>
      </trkpt>
      <trkpt lat="45.02698" lon="5.49673">
        <ele>1313.806</ele>
        <time>2013-03-21T08:32:00.076Z</time>
      </trkpt>
      <trkpt lat="45.02689" lon="5.49682">
        <ele>1318.184</ele>
        <time>2013-03-21T08:32:03.758Z</time>
      </trkpt>
      <trkpt lat="45.02678" lon="5.49687">
        <ele>1319.585</ele>
        <time>2013-03-21T08:32:07.835Z</time>
      </trkpt>
      <trkpt lat="45.02669" lon="5.49691">
        <ele>1318.919</ele>
        <time>2013-03-21T08:32:11.223Z</time>
      </trkpt>
      <trkpt lat="45.02658" lon="5.49695">
        <ele>1317.045</ele>
        <time>2013-03-21T08:32:15.260Z</time>
      </trkpt>
      <trkpt lat="45.02649" lon="5.49702">
        <ele>1314.865</ele>
        <time>2013-03-21T08:32:19.326Z</time>
      </trkpt>
      <trkpt lat="45.02641" lon="5.49708">
        <ele>1312.657</ele>
        <time>2013-03-21T08:32:23.044Z</time>
      </trkpt>
      <trkpt lat="45.02631" lon="5.49709">
        <ele>1309.47</ele>
        <time>2013-03-21T08:32:27.284Z</time>
      </trkpt>
      <trkpt lat="45.0262" lon="5.49708">
        <ele>1305.295</ele>
        <time>2013-03-21T08:32:32.520Z</time>
      </trkpt>
      <trkpt lat="45.02611" lon="5.49705">
        <ele>1301.988</ele>
        <time>2013-03-21T08:32:36.549Z</time>
      </trkpt>
      <trkpt lat="45.02602" lon="5.497">
        <ele>1301.133</ele>
        <time>2013-03-21T08:32:40.003Z</time>
      </trkpt>
      <trkpt lat="45.02592" lon="5.49699">
        <ele>1302.692</ele>
        <time>2013-03-21T08:32:44.108Z</time>
      </trkpt>
      <trkpt lat="45.02583" lon="5.49694">
        <ele>1306.597</ele>
        <time>2013-03-21T08:32:47.951Z</time>
      </trkpt>
      <trkpt lat="45.0258" lon="5.4968">
        <ele>1312.142</ele>
        <time>2013-03-21T08:32:53.254Z</time>
      </trkpt>
      <trkpt lat="45.02585" lon="5.49667">
        <ele>1317.018</ele>
        <time>2013-03-21T08:32:58.591Z</time>
      </trkpt>
      <trkpt lat="45.02588" lon="5.49655">
        <ele>1318.287</ele>
        <time>2013-03-21T08:33:03.378Z</time>
      </trkpt>
      <trkpt lat="45.02588" lon="5.4964">
        <ele>1315.748</ele>
        <time>2013-03-21T08:33:08.954Z</time>
      </trkpt>
      <trkpt lat="45.02581" lon="5.49627">
        <ele>1312.203</ele>
        <time>2013-03-21T08:33:14.402Z</time>
      </trkpt>
      <trkpt lat="45.02572" lon="5.49619">
        <ele>1310.284</ele>
        <time>2013-03-21T08:33:19.307Z</time>
      </trkpt>
      <trkpt lat="45.02563" lon="5.49614">
        <ele>1310.635</ele>
        <time>2013-03-21T08:33:22.912Z</time>
      </trkpt>
      <trkpt lat="45.02563" lon="5.49614">
        <ele>1312.841</ele>
        <time>2013-03-21T08:33:38.919Z</time>
      </trkpt>
      <trkpt lat="45.02543" lon="5.49607">
        <ele>1320.65</ele>
        <time>2013-03-21T08:40:06.245Z</time>
      </trkpt>
      <trkpt lat="45.02543" lon="5.49607">
        <ele>1320.041</ele>
        <time>2013-03-21T08:40:06.246Z</time>
      </trkpt>
      <trkpt lat="45.02543" lon="5.49607">
        <ele>1319.814</ele>
        <time>2013-03-21T08:40:06.346Z</time>
      </trkpt>
      <trkpt lat="45.02529" lon="5.49591">
        <ele>1319.176</ele>
        <time>2013-03-21T08:40:15.375Z</time>
      </trkpt>
      <trkpt lat="45.02512" lon="5.49584">
        <ele>1318.735</ele>
        <time>2013-03-21T08:40:20.484Z</time>
      </trkpt>
      <trkpt lat="45.02497" lon="5.49591">
        <ele>1318.592</ele>
        <time>2013-03-21T08:40:24.900Z</time>
      </trkpt>
      <trkpt lat="45.02487" lon="5.49593">
        <ele>1318.659</ele>
        <time>2013-03-21T08:40:28.214Z</time>
      </trkpt>
      <trkpt lat="45.02476" lon="5.49587">
        <ele>1318.776</ele>
        <time>2013-03-21T08:40:32.331Z</time>
      </trkpt>
      <trkpt lat="45.02468" lon="5.49576">
        <ele>1319.102</ele>
        <time>2013-03-21T08:40:36.671Z</time>
      </trkpt>
      <trkpt lat="45.02461" lon="5.49567">
        <ele>1319.765</ele>
        <time>2013-03-21T08:40:40.999Z</time>
      </trkpt>
      <trkpt lat="45.02453" lon="5.49558">
        <ele>1320.742</ele>
        <time>2013-03-21T08:40:47.216Z</time>
      </trkpt>
      <trkpt lat="45.02446" lon="5.49549">
        <ele>1321.268</ele>
        <time>2013-03-21T08:40:53.244Z</time>
      </trkpt>
      <trkpt lat="45.02446" lon="5.49549">
        <ele>1320.729</ele>
        <time>2013-03-21T08:40:56.243Z</time>
      </trkpt>
      <trkpt lat="45.02446" lon="5.49549">
        <ele>1319.8</ele>
        <time>2013-03-21T08:41:07.169Z</time>
      </trkpt>
      <trkpt lat="45.02436" lon="5.49529">
        <ele>1319.37</ele>
        <time>2013-03-21T08:41:28.822Z</time>
      </trkpt>
      <trkpt lat="45.02427" lon="5.49519">
        <ele>1319.299</ele>
        <time>2013-03-21T08:41:34.240Z</time>
      </trkpt>
      <trkpt lat="45.0242" lon="5.49507">
        <ele>1319.313</ele>
        <time>2013-03-21T08:41:39.132Z</time>
      </trkpt>
      <trkpt lat="45.02412" lon="5.495">
        <ele>1319.081</ele>
        <time>2013-03-21T08:41:43.774Z</time>
      </trkpt>
      <trkpt lat="45.02402" lon="5.49491">
        <ele>1318.585</ele>
        <time>2013-03-21T08:41:50.041Z</time>
      </trkpt>
      <trkpt lat="45.02391" lon="5.49487">
        <ele>1318.035</ele>
        <time>2013-03-21T08:41:55.781Z</time>
      </trkpt>
      <trkpt lat="45.02381" lon="5.49487">
        <ele>1317.412</ele>
        <time>2013-03-21T08:42:00.160Z</time>
      </trkpt>
      <trkpt lat="45.02371" lon="5.49493">
        <ele>1316.685</ele>
        <time>2013-03-21T08:42:04.469Z</time>
      </trkpt>
      <trkpt lat="45.02362" lon="5.49501">
        <ele>1316.152</ele>
        <time>2013-03-21T08:42:08.418Z</time>
      </trkpt>
      <trkpt lat="45.02353" lon="5.49506">
        <ele>1316.312</ele>
        <time>2013-03-21T08:42:11.124Z</time>
      </trkpt>
      <trkpt lat="45.02343" lon="5.49508">
        <ele>1317.356</ele>
        <time>2013-03-21T08:42:13.409Z</time>
      </trkpt>
      <trkpt lat="45.02324" lon="5.49513">
        <ele>1318.636</ele>
        <time>2013-03-21T08:42:17.182Z</time>
      </trkpt>
      <trkpt lat="45.02309" lon="5.49518">
        <ele>1318.042</ele>
        <time>2013-03-21T08:42:20.091Z</time>
      </trkpt>
      <trkpt lat="45.02295" lon="5.49523">
        <ele>1314.186</ele>
        <time>2013-03-21T08:42:22.836Z</time>
      </trkpt>
      <trkpt lat="45.02281" lon="5.49526">
        <ele>1309.098</ele>
        <time>2013-03-21T08:42:25.402Z</time>
      </trkpt>
      <trkpt lat="45.02267" lon="5.4953">
        <ele>1306.374</ele>
        <time>2013-03-21T08:42:28.093Z</time>
      </trkpt>
      <trkpt lat="45.02255" lon="5.49536">
        <ele>1306.993</ele>
        <time>2013-03-21T08:42:30.417Z</time>
      </trkpt>
      <trkpt lat="45.02244" lon="5.49541">
        <ele>1309.16</ele>
        <time>2013-03-21T08:42:32.253Z</time>
      </trkpt>
      <trkpt lat="45.0223" lon="5.49549">
        <ele>1310.908</ele>
        <time>2013-03-21T08:42:34.749Z</time>
      </trkpt>
      <trkpt lat="45.0222" lon="5.49553">
        <ele>1311.78</ele>
        <time>2013-03-21T08:42:36.239Z</time>
      </trkpt>
      <trkpt lat="45.02201" lon="5.49558">
        <ele>1312.054</ele>
        <time>2013-03-21T08:42:39.081Z</time>
      </trkpt>
      <trkpt lat="45.02188" lon="5.49562">
        <ele>1312.614</ele>
        <time>2013-03-21T08:42:41.048Z</time>
      </trkpt>
      <trkpt lat="45.02167" lon="5.49561">
        <ele>1314.687</ele>
        <time>2013-03-21T08:42:43.843Z</time>
      </trkpt>
      <trkpt lat="45.02147" lon="5.49563">
        <ele>1317.889</ele>
        <time>2013-03-21T08:42:46.716Z</time>
      </trkpt>
      <trkpt lat="45.02134" lon="5.49566">
        <ele>1319.968</ele>
        <time>2013-03-21T08:42:49.343Z</time>
      </trkpt>
      <trkpt lat="45.02114" lon="5.49577">
        <ele>1319.358</ele>
        <time>2013-03-21T08:42:55.941Z</time>
      </trkpt>
      <trkpt lat="45.02099" lon="5.49583">
        <ele>1316.03</ele>
        <time>2013-03-21T08:43:01.561Z</time>
      </trkpt>
      <trkpt lat="45.02088" lon="5.49588">
        <ele>1311.364</ele>
        <time>2013-03-21T08:43:05.959Z</time>
      </trkpt>
      <trkpt lat="45.02076" lon="5.49593">
        <ele>1307.781</ele>
        <time>2013-03-21T08:43:11.226Z</time>
      </trkpt>
      <trkpt lat="45.02067" lon="5.49597">
        <ele>1306.908</ele>
        <time>2013-03-21T08:43:15.523Z</time>
      </trkpt>
      <trkpt lat="45.02056" lon="5.49596">
        <ele>1308.239</ele>
        <time>2013-03-21T08:43:19.264Z</time>
      </trkpt>
      <trkpt lat="45.02046" lon="5.49591">
        <ele>1311.571</ele>
        <time>2013-03-21T08:43:21.997Z</time>
      </trkpt>
      <trkpt lat="45.02037" lon="5.49588">
        <ele>1316.516</ele>
        <time>2013-03-21T08:43:24.016Z</time>
      </trkpt>
      <trkpt lat="45.02027" lon="5.49586">
        <ele>1320.451</ele>
        <time>2013-03-21T08:43:26.043Z</time>
      </trkpt>
      <trkpt lat="45.02016" lon="5.49583">
        <ele>1321.455</ele>
        <time>2013-03-21T08:43:28.369Z</time>
      </trkpt>
      <trkpt lat="45.02005" lon="5.49578">
        <ele>1321.148</ele>
        <time>2013-03-21T08:43:31.233Z</time>
      </trkpt>
      <trkpt lat="45.01996" lon="5.49573">
        <ele>1321.32</ele>
        <time>2013-03-21T08:43:33.553Z</time>
      </trkpt>
      <trkpt lat="45.01986" lon="5.49567">
        <ele>1321.965</ele>
        <time>2013-03-21T08:43:36.447Z</time>
      </trkpt>
      <trkpt lat="45.01973" lon="5.49558">
        <ele>1322.445</ele>
        <time>2013-03-21T08:43:40.397Z</time>
      </trkpt>
      <trkpt lat="45.01963" lon="5.49556">
        <ele>1321.861</ele>
        <time>2013-03-21T08:43:42.882Z</time>
      </trkpt>
      <trkpt lat="45.01951" lon="5.49554">
        <ele>1319.846</ele>
        <time>2013-03-21T08:43:46.064Z</time>
      </trkpt>
      <trkpt lat="45.0194" lon="5.4955">
        <ele>1317.312</ele>
        <time>2013-03-21T08:43:48.919Z</time>
      </trkpt>
      <trkpt lat="45.01927" lon="5.49549">
        <ele>1315.254</ele>
        <time>2013-03-21T08:43:51.672Z</time>
      </trkpt>
      <trkpt lat="45.01909" lon="5.49548">
        <ele>1314.461</ele>
        <time>2013-03-21T08:43:55.829Z</time>
      </trkpt>
      <trkpt lat="45.019" lon="5.49547">
        <ele>1316.231</ele>
        <time>2013-03-21T08:43:58.809Z</time>
      </trkpt>
      <trkpt lat="45.0189" lon="5.49548">
        <ele>1320.597</ele>
        <time>2013-03-21T08:44:02.417Z</time>
      </trkpt>
      <trkpt lat="45.01881" lon="5.49551">
        <ele>1325.471</ele>
        <time>2013-03-21T08:44:06.004Z</time>
      </trkpt>
      <trkpt lat="45.01871" lon="5.49551">
        <ele>1328.661</ele>
        <time>2013-03-21T08:44:09.110Z</time>
      </trkpt>
      <trkpt lat="45.01861" lon="5.49547">
        <ele>1329.06</ele>
        <time>2013-03-21T08:44:11.836Z</time>
      </trkpt>
      <trkpt lat="45.01848" lon="5.49544">
        <ele>1326.355</ele>
        <time>2013-03-21T08:44:15.678Z</time>
      </trkpt>
      <trkpt lat="45.01835" lon="5.49543">
        <ele>1322.175</ele>
        <time>2013-03-21T08:44:21.046Z</time>
      </trkpt>
      <trkpt lat="45.01822" lon="5.49543">
        <ele>1318.742</ele>
        <time>2013-03-21T08:44:26.868Z</time>
      </trkpt>
      <trkpt lat="45.01813" lon="5.49542">
        <ele>1317.298</ele>
        <time>2013-03-21T08:44:31.462Z</time>
      </trkpt>
      <trkpt lat="45.01804" lon="5.49538">
        <ele>1318.001</ele>
        <time>2013-03-21T08:44:35.985Z</time>
      </trkpt>
      <trkpt lat="45.01794" lon="5.49534">
        <ele>1319.811</ele>
        <time>2013-03-21T08:44:40.844Z</time>
      </trkpt>
      <trkpt lat="45.01785" lon="5.49529">
        <ele>1321.771</ele>
        <time>2013-03-21T08:44:44.996Z</time>
      </trkpt>
      <trkpt lat="45.01775" lon="5.49525">
        <ele>1323.673</ele>
        <time>2013-03-21T08:44:48.724Z</time>
      </trkpt>
      <trkpt lat="45.01765" lon="5.49525">
        <ele>1325.757</ele>
        <time>2013-03-21T08:44:51.688Z</time>
      </trkpt>
      <trkpt lat="45.01752" lon="5.49526">
        <ele>1328.682</ele>
        <time>2013-03-21T08:44:54.726Z</time>
      </trkpt>
      <trkpt lat="45.01737" lon="5.49526">
        <ele>1331.915</ele>
        <time>2013-03-21T08:44:58.875Z</time>
      </trkpt>
      <trkpt lat="45.01724" lon="5.49525">
        <ele>1334.075</ele>
        <time>2013-03-21T08:45:03.045Z</time>
      </trkpt>
      <trkpt lat="45.01715" lon="5.49524">
        <ele>1334.867</ele>
        <time>2013-03-21T08:45:06.506Z</time>
      </trkpt>
      <trkpt lat="45.01704" lon="5.49524">
        <ele>1335.343</ele>
        <time>2013-03-21T08:45:11.123Z</time>
      </trkpt>
      <trkpt lat="45.01694" lon="5.49524">
        <ele>1336.391</ele>
        <time>2013-03-21T08:45:16.004Z</time>
      </trkpt>
      <trkpt lat="45.01685" lon="5.49521">
        <ele>1337.127</ele>
        <time>2013-03-21T08:45:21.471Z</time>
      </trkpt>
      <trkpt lat="45.01675" lon="5.49517">
        <ele>1336.554</ele>
        <time>2013-03-21T08:45:26.426Z</time>
      </trkpt>
      <trkpt lat="45.01667" lon="5.49512">
        <ele>1335.373</ele>
        <time>2013-03-21T08:45:30.799Z</time>
      </trkpt>
      <trkpt lat="45.01657" lon="5.4951">
        <ele>1334.566</ele>
        <time>2013-03-21T08:45:34.863Z</time>
      </trkpt>
      <trkpt lat="45.01649" lon="5.49518">
        <ele>1334.2</ele>
        <time>2013-03-21T08:45:38.266Z</time>
      </trkpt>
      <trkpt lat="45.01642" lon="5.49532">
        <ele>1333.996</ele>
        <time>2013-03-21T08:45:42.151Z</time>
      </trkpt>
      <trkpt lat="45.01634" lon="5.49549">
        <ele>1333.763</ele>
        <time>2013-03-21T08:45:46.255Z</time>
      </trkpt>
      <trkpt lat="45.01628" lon="5.49563">
        <ele>1333.466</ele>
        <time>2013-03-21T08:45:49.449Z</time>
      </trkpt>
      <trkpt lat="45.01622" lon="5.49575">
        <ele>1333.032</ele>
        <time>2013-03-21T08:45:52.045Z</time>
      </trkpt>
      <trkpt lat="45.01616" lon="5.49586">
        <ele>1332.344</ele>
        <time>2013-03-21T08:45:54.446Z</time>
      </trkpt>
      <trkpt lat="45.01608" lon="5.49597">
        <ele>1331.408</ele>
        <time>2013-03-21T08:45:56.944Z</time>
      </trkpt>
      <trkpt lat="45.01596" lon="5.49605">
        <ele>1329.888</ele>
        <time>2013-03-21T08:46:00.134Z</time>
      </trkpt>
      <trkpt lat="45.01586" lon="5.4961">
        <ele>1326.487</ele>
        <time>2013-03-21T08:46:02.147Z</time>
      </trkpt>
      <trkpt lat="45.01577" lon="5.49616">
        <ele>1321.366</ele>
        <time>2013-03-21T08:46:03.952Z</time>
      </trkpt>
      <trkpt lat="45.01563" lon="5.49619">
        <ele>1317.044</ele>
        <time>2013-03-21T08:46:06.063Z</time>
      </trkpt>
      <trkpt lat="45.0154" lon="5.49631">
        <ele>1315.105</ele>
        <time>2013-03-21T08:46:09.272Z</time>
      </trkpt>
      <trkpt lat="45.01514" lon="5.49648">
        <ele>1315.322</ele>
        <time>2013-03-21T08:46:12.966Z</time>
      </trkpt>
      <trkpt lat="45.01497" lon="5.49655">
        <ele>1318.232</ele>
        <time>2013-03-21T08:46:15.746Z</time>
      </trkpt>
      <trkpt lat="45.01484" lon="5.4966">
        <ele>1323.976</ele>
        <time>2013-03-21T08:46:17.946Z</time>
      </trkpt>
      <trkpt lat="45.01474" lon="5.49666">
        <ele>1330.355</ele>
        <time>2013-03-21T08:46:19.392Z</time>
      </trkpt>
      <trkpt lat="45.01455" lon="5.49678">
        <ele>1334.719</ele>
        <time>2013-03-21T08:46:21.870Z</time>
      </trkpt>
      <trkpt lat="45.01442" lon="5.49691">
        <ele>1336.728</ele>
        <time>2013-03-21T08:46:23.714Z</time>
      </trkpt>
      <trkpt lat="45.01423" lon="5.4971">
        <ele>1337.499</ele>
        <time>2013-03-21T08:46:26.850Z</time>
      </trkpt>
      <trkpt lat="45.0141" lon="5.49721">
        <ele>1337.062</ele>
        <time>2013-03-21T08:46:29.472Z</time>
      </trkpt>
      <trkpt lat="45.01398" lon="5.4973">
        <ele>1335.197</ele>
        <time>2013-03-21T08:46:32.733Z</time>
      </trkpt>
      <trkpt lat="45.01387" lon="5.49736">
        <ele>1332.964</ele>
        <time>2013-03-21T08:46:36.308Z</time>
      </trkpt>
      <trkpt lat="45.01375" lon="5.49742">
        <ele>1331.047</ele>
        <time>2013-03-21T08:46:40.288Z</time>
      </trkpt>
      <trkpt lat="45.01363" lon="5.49749">
        <ele>1329.414</ele>
        <time>2013-03-21T08:46:44.304Z</time>
      </trkpt>
      <trkpt lat="45.01353" lon="5.49755">
        <ele>1328.099</ele>
        <time>2013-03-21T08:46:47.744Z</time>
      </trkpt>
      <trkpt lat="45.01343" lon="5.49762">
        <ele>1327.36</ele>
        <time>2013-03-21T08:46:52.031Z</time>
      </trkpt>
      <trkpt lat="45.01333" lon="5.49769">
        <ele>1327.179</ele>
        <time>2013-03-21T08:46:56.608Z</time>
      </trkpt>
      <trkpt lat="45.01323" lon="5.49776">
        <ele>1326.914</ele>
        <time>2013-03-21T08:47:00.691Z</time>
      </trkpt>
      <trkpt lat="45.01314" lon="5.49783">
        <ele>1326.341</ele>
        <time>2013-03-21T08:47:03.968Z</time>
      </trkpt>
      <trkpt lat="45.01304" lon="5.49789">
        <ele>1324.691</ele>
        <time>2013-03-21T08:47:07.172Z</time>
      </trkpt>
      <trkpt lat="45.01297" lon="5.49798">
        <ele>1321.117</ele>
        <time>2013-03-21T08:47:09.646Z</time>
      </trkpt>
      <trkpt lat="45.0129" lon="5.49812">
        <ele>1317.33</ele>
        <time>2013-03-21T08:47:12.759Z</time>
      </trkpt>
      <trkpt lat="45.01283" lon="5.49828">
        <ele>1316.144</ele>
        <time>2013-03-21T08:47:16.286Z</time>
      </trkpt>
      <trkpt lat="45.01276" lon="5.49839">
        <ele>1318.06</ele>
        <time>2013-03-21T08:47:20.015Z</time>
      </trkpt>
      <trkpt lat="45.01267" lon="5.49846">
        <ele>1321.089</ele>
        <time>2013-03-21T08:47:23.896Z</time>
      </trkpt>
      <trkpt lat="45.01257" lon="5.49854">
        <ele>1323.065</ele>
        <time>2013-03-21T08:47:28.123Z</time>
      </trkpt>
      <trkpt lat="45.01247" lon="5.49858">
        <ele>1323.516</ele>
        <time>2013-03-21T08:47:32.143Z</time>
      </trkpt>
      <trkpt lat="45.01228" lon="5.49863">
        <ele>1322.988</ele>
        <time>2013-03-21T08:47:39.438Z</time>
      </trkpt>
      <trkpt lat="45.01214" lon="5.49868">
        <ele>1323.295</ele>
        <time>2013-03-21T08:47:44.860Z</time>
      </trkpt>
      <trkpt lat="45.01203" lon="5.49853">
        <ele>1326.616</ele>
        <time>2013-03-21T08:47:50.544Z</time>
      </trkpt>
      <trkpt lat="45.01202" lon="5.49839">
        <ele>1332.245</ele>
        <time>2013-03-21T08:47:54.476Z</time>
      </trkpt>
      <trkpt lat="45.01202" lon="5.49827">
        <ele>1336.938</ele>
        <time>2013-03-21T08:47:58.337Z</time>
      </trkpt>
      <trkpt lat="45.01198" lon="5.49807">
        <ele>1338.62</ele>
        <time>2013-03-21T08:48:02.076Z</time>
      </trkpt>
      <trkpt lat="45.01188" lon="5.49786">
        <ele>1337.821</ele>
        <time>2013-03-21T08:48:05.494Z</time>
      </trkpt>
      <trkpt lat="45.01181" lon="5.49765">
        <ele>1336.803</ele>
        <time>2013-03-21T08:48:08.224Z</time>
      </trkpt>
      <trkpt lat="45.01174" lon="5.49749">
        <ele>1337.106</ele>
        <time>2013-03-21T08:48:10.367Z</time>
      </trkpt>
      <trkpt lat="45.01165" lon="5.49733">
        <ele>1337.834</ele>
        <time>2013-03-21T08:48:13.306Z</time>
      </trkpt>
      <trkpt lat="45.01154" lon="5.49726">
        <ele>1337.615</ele>
        <time>2013-03-21T08:48:16.574Z</time>
      </trkpt>
      <trkpt lat="45.01145" lon="5.49721">
        <ele>1336.576</ele>
        <time>2013-03-21T08:48:20.126Z</time>
      </trkpt>
      <trkpt lat="45.01135" lon="5.49718">
        <ele>1335.628</ele>
        <time>2013-03-21T08:48:24.676Z</time>
      </trkpt>
      <trkpt lat="45.01124" lon="5.49717">
        <ele>1335.105</ele>
        <time>2013-03-21T08:48:29.365Z</time>
      </trkpt>
      <trkpt lat="45.01113" lon="5.49713">
        <ele>1334.087</ele>
        <time>2013-03-21T08:48:33.337Z</time>
      </trkpt>
      <trkpt lat="45.01104" lon="5.49709">
        <ele>1332.074</ele>
        <time>2013-03-21T08:48:36.653Z</time>
      </trkpt>
      <trkpt lat="45.01093" lon="5.49701">
        <ele>1330.901</ele>
        <time>2013-03-21T08:48:41.271Z</time>
      </trkpt>
      <trkpt lat="45.01084" lon="5.49699">
        <ele>1331.978</ele>
        <time>2013-03-21T08:48:45.248Z</time>
      </trkpt>
      <trkpt lat="45.01084" lon="5.49699">
        <ele>1333.52</ele>
        <time>2013-03-21T08:48:47.256Z</time>
      </trkpt>
      <trkpt lat="45.01084" lon="5.49699">
        <ele>1333.664</ele>
        <time>2013-03-21T08:48:47.356Z</time>
      </trkpt>
      <trkpt lat="45.01065" lon="5.49695">
        <ele>1332.851</ele>
        <time>2013-03-21T08:49:04.052Z</time>
      </trkpt>
      <trkpt lat="45.01055" lon="5.49695">
        <ele>1332.12</ele>
        <time>2013-03-21T08:49:09.880Z</time>
      </trkpt>
      <trkpt lat="45.01045" lon="5.49693">
        <ele>1332.28</ele>
        <time>2013-03-21T08:49:15.859Z</time>
      </trkpt>
      <trkpt lat="45.01036" lon="5.49689">
        <ele>1334.428</ele>
        <time>2013-03-21T08:49:21.283Z</time>
      </trkpt>
      <trkpt lat="45.01025" lon="5.49686">
        <ele>1338.212</ele>
        <time>2013-03-21T08:49:25.633Z</time>
      </trkpt>
      <trkpt lat="45.01016" lon="5.49685">
        <ele>1341.827</ele>
        <time>2013-03-21T08:49:29.088Z</time>
      </trkpt>
      <trkpt lat="45.01007" lon="5.49682">
        <ele>1344.95</ele>
        <time>2013-03-21T08:49:32.013Z</time>
      </trkpt>
      <trkpt lat="45.00998" lon="5.4968">
        <ele>1347.96</ele>
        <time>2013-03-21T08:49:34.430Z</time>
      </trkpt>
      <trkpt lat="45.00987" lon="5.49679">
        <ele>1348.44</ele>
        <time>2013-03-21T08:49:37.017Z</time>
      </trkpt>
      <trkpt lat="45.00976" lon="5.49681">
        <ele>1345.034</ele>
        <time>2013-03-21T08:49:39.686Z</time>
      </trkpt>
      <trkpt lat="45.00963" lon="5.49683">
        <ele>1341.127</ele>
        <time>2013-03-21T08:49:43.056Z</time>
      </trkpt>
      <trkpt lat="45.00951" lon="5.49685">
        <ele>1339.83</ele>
        <time>2013-03-21T08:49:46.302Z</time>
      </trkpt>
      <trkpt lat="45.0094" lon="5.49686">
        <ele>1339.994</ele>
        <time>2013-03-21T08:49:49.527Z</time>
      </trkpt>
      <trkpt lat="45.00927" lon="5.4969">
        <ele>1339.844</ele>
        <time>2013-03-21T08:49:52.791Z</time>
      </trkpt>
      <trkpt lat="45.00918" lon="5.49698">
        <ele>1339.149</ele>
        <time>2013-03-21T08:49:54.803Z</time>
      </trkpt>
      <trkpt lat="45.00908" lon="5.49713">
        <ele>1338.354</ele>
        <time>2013-03-21T08:49:58.453Z</time>
      </trkpt>
      <trkpt lat="45.00899" lon="5.49729">
        <ele>1338.058</ele>
        <time>2013-03-21T08:50:03.684Z</time>
      </trkpt>
      <trkpt lat="45.00893" lon="5.49749">
        <ele>1338.857</ele>
        <time>2013-03-21T08:50:08.963Z</time>
      </trkpt>
      <trkpt lat="45.00889" lon="5.49763">
        <ele>1340.201</ele>
        <time>2013-03-21T08:50:11.533Z</time>
      </trkpt>
      <trkpt lat="45.00883" lon="5.49784">
        <ele>1340.959</ele>
        <time>2013-03-21T08:50:14.591Z</time>
      </trkpt>
      <trkpt lat="45.00882" lon="5.49799">
        <ele>1340.965</ele>
        <time>2013-03-21T08:50:16.251Z</time>
      </trkpt>
      <trkpt lat="45.0089" lon="5.49814">
        <ele>1340.252</ele>
        <time>2013-03-21T08:50:18.276Z</time>
      </trkpt>
      <trkpt lat="45.00902" lon="5.49822">
        <ele>1338.095</ele>
        <time>2013-03-21T08:50:20.189Z</time>
      </trkpt>
      <trkpt lat="45.00916" lon="5.49837">
        <ele>1334.546</ele>
        <time>2013-03-21T08:50:22.575Z</time>
      </trkpt>
      <trkpt lat="45.00923" lon="5.49864">
        <ele>1330.744</ele>
        <time>2013-03-21T08:50:25.180Z</time>
      </trkpt>
      <trkpt lat="45.00925" lon="5.49885">
        <ele>1327.796</ele>
        <time>2013-03-21T08:50:26.864Z</time>
      </trkpt>
      <trkpt lat="45.00928" lon="5.49921">
        <ele>1326.428</ele>
        <time>2013-03-21T08:50:29.501Z</time>
      </trkpt>
      <trkpt lat="45.00932" lon="5.49948">
        <ele>1326.555</ele>
        <time>2013-03-21T08:50:31.328Z</time>
      </trkpt>
      <trkpt lat="45.00931" lon="5.49985">
        <ele>1326.896</ele>
        <time>2013-03-21T08:50:33.609Z</time>
      </trkpt>
      <trkpt lat="45.00921" lon="5.50019">
        <ele>1325.495</ele>
        <time>2013-03-21T08:50:35.864Z</time>
      </trkpt>
      <trkpt lat="45.00907" lon="5.50064">
        <ele>1320.952</ele>
        <time>2013-03-21T08:50:39.078Z</time>
      </trkpt>
      <trkpt lat="45.00898" lon="5.50101">
        <ele>1314.357</ele>
        <time>2013-03-21T08:50:42.302Z</time>
      </trkpt>
      <trkpt lat="45.00885" lon="5.50121">
        <ele>1307.541</ele>
        <time>2013-03-21T08:50:44.951Z</time>
      </trkpt>
      <trkpt lat="45.0087" lon="5.50142">
        <ele>1300.949</ele>
        <time>2013-03-21T08:50:47.395Z</time>
      </trkpt>
      <trkpt lat="45.00866" lon="5.50163">
        <ele>1294.912</ele>
        <time>2013-03-21T08:50:48.991Z</time>
      </trkpt>
      <trkpt lat="45.00864" lon="5.50205">
        <ele>1290.485</ele>
        <time>2013-03-21T08:50:51.638Z</time>
      </trkpt>
      <trkpt lat="45.00868" lon="5.50231">
        <ele>1288.247</ele>
        <time>2013-03-21T08:50:53.330Z</time>
      </trkpt>
      <trkpt lat="45.00871" lon="5.50257">
        <ele>1287.265</ele>
        <time>2013-03-21T08:50:55.040Z</time>
      </trkpt>
      <trkpt lat="45.00885" lon="5.50289">
        <ele>1286.087</ele>
        <time>2013-03-21T08:50:57.560Z</time>
      </trkpt>
      <trkpt lat="45.00903" lon="5.50316">
        <ele>1283.642</ele>
        <time>2013-03-21T08:51:00.216Z</time>
      </trkpt>
      <trkpt lat="45.00912" lon="5.50327">
        <ele>1278.351</ele>
        <time>2013-03-21T08:51:01.613Z</time>
      </trkpt>
      <trkpt lat="45.00935" lon="5.50344">
        <ele>1270.362</ele>
        <time>2013-03-21T08:51:04.540Z</time>
      </trkpt>
      <trkpt lat="45.00957" lon="5.50365">
        <ele>1261.661</ele>
        <time>2013-03-21T08:51:07.406Z</time>
      </trkpt>
      <trkpt lat="45.0097" lon="5.50376">
        <ele>1254.101</ele>
        <time>2013-03-21T08:51:09.242Z</time>
      </trkpt>
      <trkpt lat="45.00986" lon="5.50387">
        <ele>1250.035</ele>
        <time>2013-03-21T08:51:11.939Z</time>
      </trkpt>
      <trkpt lat="45.01002" lon="5.5039">
        <ele>1250.315</ele>
        <time>2013-03-21T08:51:15.055Z</time>
      </trkpt>
      <trkpt lat="45.01019" lon="5.50394">
        <ele>1252.535</ele>
        <time>2013-03-21T08:51:18.586Z</time>
      </trkpt>
      <trkpt lat="45.01029" lon="5.50397">
        <ele>1253.807</ele>
        <time>2013-03-21T08:51:20.328Z</time>
      </trkpt>
      <trkpt lat="45.01044" lon="5.50402">
        <ele>1253.243</ele>
        <time>2013-03-21T08:51:23.014Z</time>
      </trkpt>
      <trkpt lat="45.01055" lon="5.50406">
        <ele>1252.159</ele>
        <time>2013-03-21T08:51:24.940Z</time>
      </trkpt>
      <trkpt lat="45.01072" lon="5.50412">
        <ele>1251.84</ele>
        <time>2013-03-21T08:51:27.836Z</time>
      </trkpt>
      <trkpt lat="45.01085" lon="5.50416">
        <ele>1251.861</ele>
        <time>2013-03-21T08:51:30.644Z</time>
      </trkpt>
      <trkpt lat="45.01095" lon="5.5042">
        <ele>1251.543</ele>
        <time>2013-03-21T08:51:34.252Z</time>
      </trkpt>
      <trkpt lat="45.01095" lon="5.5042">
        <ele>1250.97</ele>
        <time>2013-03-21T08:51:37.253Z</time>
      </trkpt>
      <trkpt lat="45.01095" lon="5.5042">
        <ele>1250.444</ele>
        <time>2013-03-21T08:52:25.629Z</time>
      </trkpt>
      <trkpt lat="45.01123" lon="5.50438">
        <ele>1250.113</ele>
        <time>2013-03-21T08:52:43.420Z</time>
      </trkpt>
      <trkpt lat="45.01138" lon="5.50451">
        <ele>1249.934</ele>
        <time>2013-03-21T08:52:47.061Z</time>
      </trkpt>
      <trkpt lat="45.01161" lon="5.50465">
        <ele>1249.465</ele>
        <time>2013-03-21T08:52:51.570Z</time>
      </trkpt>
      <trkpt lat="45.01185" lon="5.50477">
        <ele>1248.328</ele>
        <time>2013-03-21T08:52:55.030Z</time>
      </trkpt>
      <trkpt lat="45.012" lon="5.50486">
        <ele>1246.211</ele>
        <time>2013-03-21T08:52:56.982Z</time>
      </trkpt>
      <trkpt lat="45.01231" lon="5.50506">
        <ele>1242.797</ele>
        <time>2013-03-21T08:53:00.842Z</time>
      </trkpt>
      <trkpt lat="45.01249" lon="5.50517">
        <ele>1238.107</ele>
        <time>2013-03-21T08:53:02.932Z</time>
      </trkpt>
      <trkpt lat="45.01278" lon="5.5053">
        <ele>1232.563</ele>
        <time>2013-03-21T08:53:05.749Z</time>
      </trkpt>
      <trkpt lat="45.01296" lon="5.50538">
        <ele>1226.544</ele>
        <time>2013-03-21T08:53:07.325Z</time>
      </trkpt>
      <trkpt lat="45.01316" lon="5.50547">
        <ele>1220.824</ele>
        <time>2013-03-21T08:53:09.015Z</time>
      </trkpt>
      <trkpt lat="45.0135" lon="5.50571">
        <ele>1215.839</ele>
        <time>2013-03-21T08:53:11.994Z</time>
      </trkpt>
      <trkpt lat="45.01387" lon="5.50602">
        <ele>1211.325</ele>
        <time>2013-03-21T08:53:15.131Z</time>
      </trkpt>
      <trkpt lat="45.01408" lon="5.50622">
        <ele>1207.678</ele>
        <time>2013-03-21T08:53:17.001Z</time>
      </trkpt>
      <trkpt lat="45.01428" lon="5.50642">
        <ele>1205.979</ele>
        <time>2013-03-21T08:53:18.843Z</time>
      </trkpt>
      <trkpt lat="45.01459" lon="5.50676">
        <ele>1206.173</ele>
        <time>2013-03-21T08:53:21.917Z</time>
      </trkpt>
      <trkpt lat="45.01479" lon="5.50697">
        <ele>1207.902</ele>
        <time>2013-03-21T08:53:24.075Z</time>
      </trkpt>
      <trkpt lat="45.01504" lon="5.50726">
        <ele>1210.63</ele>
        <time>2013-03-21T08:53:27.069Z</time>
      </trkpt>
      <trkpt lat="45.01517" lon="5.50747">
        <ele>1212.545</ele>
        <time>2013-03-21T08:53:29.020Z</time>
      </trkpt>
      <trkpt lat="45.01531" lon="5.50768">
        <ele>1211.857</ele>
        <time>2013-03-21T08:53:31.187Z</time>
      </trkpt>
      <trkpt lat="45.01551" lon="5.50791">
        <ele>1208.935</ele>
        <time>2013-03-21T08:53:34.234Z</time>
      </trkpt>
      <trkpt lat="45.01565" lon="5.50803">
        <ele>1205.304</ele>
        <time>2013-03-21T08:53:36.242Z</time>
      </trkpt>
      <trkpt lat="45.01584" lon="5.50817">
        <ele>1201.861</ele>
        <time>2013-03-21T08:53:39.027Z</time>
      </trkpt>
      <trkpt lat="45.01598" lon="5.50824">
        <ele>1198.54</ele>
        <time>2013-03-21T08:53:40.888Z</time>
      </trkpt>
      <trkpt lat="45.01616" lon="5.50836">
        <ele>1195.611</ele>
        <time>2013-03-21T08:53:43.701Z</time>
      </trkpt>
      <trkpt lat="45.01629" lon="5.50846">
        <ele>1193.414</ele>
        <time>2013-03-21T08:53:45.673Z</time>
      </trkpt>
      <trkpt lat="45.01641" lon="5.50857">
        <ele>1191.483</ele>
        <time>2013-03-21T08:53:47.754Z</time>
      </trkpt>
      <trkpt lat="45.01654" lon="5.50868">
        <ele>1189.612</ele>
        <time>2013-03-21T08:53:50.182Z</time>
      </trkpt>
      <trkpt lat="45.01673" lon="5.50881">
        <ele>1188.414</ele>
        <time>2013-03-21T08:53:53.530Z</time>
      </trkpt>
      <trkpt lat="45.0169" lon="5.50888">
        <ele>1187.766</ele>
        <time>2013-03-21T08:53:56.424Z</time>
      </trkpt>
      <trkpt lat="45.01701" lon="5.50893">
        <ele>1187.103</ele>
        <time>2013-03-21T08:53:58.355Z</time>
      </trkpt>
      <trkpt lat="45.01718" lon="5.50906">
        <ele>1186.527</ele>
        <time>2013-03-21T08:54:01.643Z</time>
      </trkpt>
      <trkpt lat="45.01728" lon="5.50916">
        <ele>1186.428</ele>
        <time>2013-03-21T08:54:03.668Z</time>
      </trkpt>
      <trkpt lat="45.01739" lon="5.50935">
        <ele>1187.28</ele>
        <time>2013-03-21T08:54:06.380Z</time>
      </trkpt>
      <trkpt lat="45.01745" lon="5.50949">
        <ele>1189.109</ele>
        <time>2013-03-21T08:54:08.010Z</time>
      </trkpt>
      <trkpt lat="45.01754" lon="5.5097">
        <ele>1190.88</ele>
        <time>2013-03-21T08:54:10.192Z</time>
      </trkpt>
      <trkpt lat="45.01765" lon="5.51">
        <ele>1191.747</ele>
        <time>2013-03-21T08:54:12.869Z</time>
      </trkpt>
      <trkpt lat="45.0177" lon="5.51023">
        <ele>1191.389</ele>
        <time>2013-03-21T08:54:14.675Z</time>
      </trkpt>
      <trkpt lat="45.01788" lon="5.51056">
        <ele>1189.935</ele>
        <time>2013-03-21T08:54:17.572Z</time>
      </trkpt>
      <trkpt lat="45.01804" lon="5.51077">
        <ele>1187.967</ele>
        <time>2013-03-21T08:54:19.557Z</time>
      </trkpt>
      <trkpt lat="45.01831" lon="5.51111">
        <ele>1185.983</ele>
        <time>2013-03-21T08:54:22.511Z</time>
      </trkpt>
      <trkpt lat="45.01847" lon="5.51139">
        <ele>1184.541</ele>
        <time>2013-03-21T08:54:24.427Z</time>
      </trkpt>
      <trkpt lat="45.01858" lon="5.51168">
        <ele>1183.961</ele>
        <time>2013-03-21T08:54:26.372Z</time>
      </trkpt>
      <trkpt lat="45.01874" lon="5.51209">
        <ele>1183.797</ele>
        <time>2013-03-21T08:54:29.269Z</time>
      </trkpt>
      <trkpt lat="45.01896" lon="5.51232">
        <ele>1182.866</ele>
        <time>2013-03-21T08:54:32.058Z</time>
      </trkpt>
      <trkpt lat="45.01909" lon="5.51245">
        <ele>1180.036</ele>
        <time>2013-03-21T08:54:33.861Z</time>
      </trkpt>
      <trkpt lat="45.01927" lon="5.51258">
        <ele>1176.023</ele>
        <time>2013-03-21T08:54:36.337Z</time>
      </trkpt>
      <trkpt lat="45.01945" lon="5.51269">
        <ele>1172.057</ele>
        <time>2013-03-21T08:54:39.104Z</time>
      </trkpt>
      <trkpt lat="45.01962" lon="5.5128">
        <ele>1168.589</ele>
        <time>2013-03-21T08:54:42.013Z</time>
      </trkpt>
      <trkpt lat="45.01975" lon="5.51289">
        <ele>1166.291</ele>
        <time>2013-03-21T08:54:44.452Z</time>
      </trkpt>
      <trkpt lat="45.0199" lon="5.51299">
        <ele>1165.418</ele>
        <time>2013-03-21T08:54:47.236Z</time>
      </trkpt>
      <trkpt lat="45.02" lon="5.51305">
        <ele>1164.864</ele>
        <time>2013-03-21T08:54:49.121Z</time>
      </trkpt>
      <trkpt lat="45.02012" lon="5.51312">
        <ele>1163.749</ele>
        <time>2013-03-21T08:54:51.312Z</time>
      </trkpt>
      <trkpt lat="45.0202" lon="5.51316">
        <ele>1162.214</ele>
        <time>2013-03-21T08:54:52.999Z</time>
      </trkpt>
      <trkpt lat="45.0203" lon="5.51322">
        <ele>1160.82</ele>
        <time>2013-03-21T08:54:54.914Z</time>
      </trkpt>
      <trkpt lat="45.0204" lon="5.51329">
        <ele>1160.07</ele>
        <time>2013-03-21T08:54:57.258Z</time>
      </trkpt>
      <trkpt lat="45.0205" lon="5.51336">
        <ele>1160.32</ele>
        <time>2013-03-21T08:55:00.254Z</time>
      </trkpt>
      <trkpt lat="45.0205" lon="5.51336">
        <ele>1161.175</ele>
        <time>2013-03-21T08:55:03.258Z</time>
      </trkpt>
      <trkpt lat="45.0205" lon="5.51336">
        <ele>1161.606</ele>
        <time>2013-03-21T08:55:37.488Z</time>
      </trkpt>
      <trkpt lat="45.02067" lon="5.51348">
        <ele>1160.984</ele>
        <time>2013-03-21T08:55:47.792Z</time>
      </trkpt>
      <trkpt lat="45.02075" lon="5.51353">
        <ele>1159.978</ele>
        <time>2013-03-21T08:55:50.397Z</time>
      </trkpt>
      <trkpt lat="45.02082" lon="5.51364">
        <ele>1159.477</ele>
        <time>2013-03-21T08:55:53.280Z</time>
      </trkpt>
      <trkpt lat="45.02086" lon="5.51382">
        <ele>1159.732</ele>
        <time>2013-03-21T08:55:56.586Z</time>
      </trkpt>
      <trkpt lat="45.02091" lon="5.51394">
        <ele>1161.099</ele>
        <time>2013-03-21T08:55:58.803Z</time>
      </trkpt>
      <trkpt lat="45.02099" lon="5.51411">
        <ele>1163.354</ele>
        <time>2013-03-21T08:56:01.434Z</time>
      </trkpt>
      <trkpt lat="45.02106" lon="5.51423">
        <ele>1165.204</ele>
        <time>2013-03-21T08:56:03.322Z</time>
      </trkpt>
      <trkpt lat="45.02118" lon="5.51444">
        <ele>1165.926</ele>
        <time>2013-03-21T08:56:06.359Z</time>
      </trkpt>
      <trkpt lat="45.02126" lon="5.51458">
        <ele>1165.839</ele>
        <time>2013-03-21T08:56:08.380Z</time>
      </trkpt>
      <trkpt lat="45.02129" lon="5.51473">
        <ele>1165.5</ele>
        <time>2013-03-21T08:56:10.081Z</time>
      </trkpt>
      <trkpt lat="45.0213" lon="5.51501">
        <ele>1165.263</ele>
        <time>2013-03-21T08:56:12.989Z</time>
      </trkpt>
      <trkpt lat="45.02131" lon="5.51532">
        <ele>1164.425</ele>
        <time>2013-03-21T08:56:16.333Z</time>
      </trkpt>
      <trkpt lat="45.02136" lon="5.51559">
        <ele>1162.357</ele>
        <time>2013-03-21T08:56:19.156Z</time>
      </trkpt>
      <trkpt lat="45.02144" lon="5.51573">
        <ele>1159.541</ele>
        <time>2013-03-21T08:56:20.792Z</time>
      </trkpt>
      <trkpt lat="45.02153" lon="5.51589">
        <ele>1156.642</ele>
        <time>2013-03-21T08:56:22.472Z</time>
      </trkpt>
      <trkpt lat="45.02164" lon="5.51606">
        <ele>1153.987</ele>
        <time>2013-03-21T08:56:24.283Z</time>
      </trkpt>
      <trkpt lat="45.0218" lon="5.51634">
        <ele>1151.838</ele>
        <time>2013-03-21T08:56:27.064Z</time>
      </trkpt>
      <trkpt lat="45.02191" lon="5.51651">
        <ele>1150.365</ele>
        <time>2013-03-21T08:56:28.870Z</time>
      </trkpt>
      <trkpt lat="45.02201" lon="5.51665">
        <ele>1149.229</ele>
        <time>2013-03-21T08:56:30.674Z</time>
      </trkpt>
      <trkpt lat="45.02212" lon="5.51679">
        <ele>1147.915</ele>
        <time>2013-03-21T08:56:32.509Z</time>
      </trkpt>
      <trkpt lat="45.02229" lon="5.51696">
        <ele>1147.17</ele>
        <time>2013-03-21T08:56:35.255Z</time>
      </trkpt>
      <trkpt lat="45.02242" lon="5.51703">
        <ele>1147.716</ele>
        <time>2013-03-21T08:56:37.065Z</time>
      </trkpt>
      <trkpt lat="45.02254" lon="5.51708">
        <ele>1148.502</ele>
        <time>2013-03-21T08:56:38.830Z</time>
      </trkpt>
      <trkpt lat="45.02266" lon="5.51713">
        <ele>1148.11</ele>
        <time>2013-03-21T08:56:40.572Z</time>
      </trkpt>
      <trkpt lat="45.02278" lon="5.51717">
        <ele>1146.239</ele>
        <time>2013-03-21T08:56:42.493Z</time>
      </trkpt>
      <trkpt lat="45.02298" lon="5.51723">
        <ele>1143.836</ele>
        <time>2013-03-21T08:56:45.527Z</time>
      </trkpt>
      <trkpt lat="45.02317" lon="5.51729">
        <ele>1142.54</ele>
        <time>2013-03-21T08:56:48.389Z</time>
      </trkpt>
      <trkpt lat="45.02335" lon="5.5173">
        <ele>1142.918</ele>
        <time>2013-03-21T08:56:51.255Z</time>
      </trkpt>
      <trkpt lat="45.02335" lon="5.5173">
        <ele>1143.514</ele>
        <time>2013-03-21T08:56:57.255Z</time>
      </trkpt>
      <trkpt lat="45.02335" lon="5.5173">
        <ele>1143.083</ele>
        <time>2013-03-21T08:56:59.556Z</time>
      </trkpt>
      <trkpt lat="45.02353" lon="5.51738">
        <ele>1142.171</ele>
        <time>2013-03-21T08:57:05.259Z</time>
      </trkpt>
      <trkpt lat="45.02353" lon="5.51738">
        <ele>1141.505</ele>
        <time>2013-03-21T08:57:09.267Z</time>
      </trkpt>
      <trkpt lat="45.02353" lon="5.51738">
        <ele>1140.981</ele>
        <time>2013-03-21T08:58:01.259Z</time>
      </trkpt>
      <trkpt lat="45.02362" lon="5.51742">
        <ele>1148.958</ele>
        <time>2013-03-21T08:58:51.303Z</time>
      </trkpt>
      <trkpt lat="45.02353" lon="5.51736">
        <ele>1148.427</ele>
        <time>2013-03-21T08:59:44.670Z</time>
      </trkpt>
      <trkpt lat="45.02345" lon="5.51728">
        <ele>1147.457</ele>
        <time>2013-03-21T09:00:40.695Z</time>
      </trkpt>
      <trkpt lat="45.02345" lon="5.51715">
        <ele>1145.445</ele>
        <time>2013-03-21T09:01:18.261Z</time>
      </trkpt>
      <trkpt lat="45.02345" lon="5.51715">
        <ele>1143.44</ele>
        <time>2013-03-21T09:01:34.272Z</time>
      </trkpt>
      <trkpt lat="45.02345" lon="5.51715">
        <ele>1142.511</ele>
        <time>2013-03-21T09:01:34.372Z</time>
      </trkpt>
      <trkpt lat="45.02367" lon="5.51713">
        <ele>1142.297</ele>
        <time>2013-03-21T09:02:00.259Z</time>
      </trkpt>
      <trkpt lat="45.02367" lon="5.51713">
        <ele>1142.184</ele>
        <time>2013-03-21T09:02:12.278Z</time>
      </trkpt>
      <trkpt lat="45.02367" lon="5.51713">
        <ele>1141.868</ele>
        <time>2013-03-21T09:02:19.275Z</time>
      </trkpt>
    </trkseg>
  </trk>
</gpx>